Data Archive--April, 2006

Date Time Heat Index Current Temp Wind Chill High Temp Low Temp Humidity Dew Point Wind Speed Gust Wind Direction Rain Barometer
04/05/2006 5:40 a 36.4 36.4 36.4 36.4 36.3 89 33.5 0.0 1.0 --- 0.00 29.541
04/05/2006 7:10 a 36.5 36.5 36.5 36.5 36.4 89 33.6 0.0 1.0 --- 0.00 29.550
04/05/2006 7:20 a 36.6 36.6 36.6 36.7 36.5 90 34.0 0.0 0.0 --- 0.00 29.551
04/05/2006 7:30 a 36.8 36.8 36.8 36.9 36.7 91 34.4 0.0 0.0 --- 0.00 29.552
04/05/2006 7:40 a 37.0 37.0 37.0 37.2 36.9 91 34.6 0.0 0.0 --- 0.00 29.552
04/05/2006 7:50 a 37.2 37.2 37.2 37.2 37.1 91 34.8 0.0 0.0 --- 0.00 29.553
04/05/2006 8:00 a 37.3 37.3 37.3 37.4 37.2 91 34.9 0.0 1.0 E 0.00 29.546
04/05/2006 8:10 a 37.9 37.9 37.9 38.3 37.4 88 34.7 0.0 2.0 WNW 0.00 29.538
04/05/2006 8:20 a 38.7 38.7 38.7 39.0 38.3 85 34.6 0.0 2.0 WNW 0.00 29.540
04/05/2006 8:30 a 39.3 39.3 39.3 39.6 39.0 84 34.9 0.0 1.0 WNW 0.00 29.537
04/05/2006 8:40 a 39.9 39.9 39.9 40.1 39.6 82 34.9 0.0 3.0 N 0.00 29.532
04/05/2006 8:50 a 40.1 40.1 40.1 40.2 40.1 83 35.4 0.0 1.0 N 0.00 29.530
04/05/2006 9:00 a 40.3 40.3 40.3 40.3 40.2 81 34.9 0.0 3.0 N 0.00 29.523
04/05/2006 9:10 a 40.5 40.5 40.5 40.6 40.3 82 35.4 0.0 3.0 NNW 0.00 29.521
04/05/2006 9:20 a 40.6 40.6 40.6 40.6 40.5 82 35.5 0.0 1.0 NNW 0.00 29.518
04/05/2006 9:30 a 40.5 40.5 40.5 40.6 40.3 82 35.4 0.0 2.0 NNW 0.01 29.514
04/05/2006 9:40 a 40.2 40.2 40.2 40.3 40.0 85 36.1 0.0 3.0 NNW 0.01 29.516
04/05/2006 9:50 a 39.8 39.8 39.8 40.0 39.5 87 36.3 0.0 2.0 NE 0.00 29.522
04/05/2006 10:00 a 39.3 39.3 39.3 39.5 38.9 86 35.5 0.0 3.0 NE 0.05 29.524
04/05/2006 10:10 a 38.0 38.0 38.0 38.9 37.3 87 34.5 0.0 2.0 NNE 0.03 29.527
04/05/2006 10:20 a 36.9 36.9 36.9 37.3 36.7 89 34.0 0.0 0.0 --- 0.01 29.525
04/05/2006 10:30 a 36.8 36.8 36.8 37.1 36.7 92 34.7 0.0 4.0 E 0.00 29.528
04/05/2006 10:40 a 37.1 37.1 37.1 37.3 36.4 88 33.9 3.0 6.0 SE 0.01 29.539
04/05/2006 10:50 a 35.0 35.0 35.0 36.4 33.6 88 31.8 3.0 13.0 SSE 0.00 29.549
04/05/2006 11:00 a 32.9 32.9 32.9 33.6 32.4 90 30.3 3.0 9.0 SSE 0.00 29.553
04/05/2006 11:10 a 32.3 32.3 32.3 32.4 32.3 92 30.2 2.0 6.0 S 0.00 29.557
04/05/2006 11:20 a 32.4 32.4 32.4 32.5 32.3 94 30.9 2.0 5.0 ESE 0.00 29.565
04/05/2006 11:30 a 32.6 32.6 32.6 32.7 32.5 93 30.8 1.0 4.0 ESE 0.01 29.572
04/05/2006 11:40 a 33.0 33.0 33.0 33.2 32.7 92 30.9 2.0 8.0 SSE 0.00 29.578
04/05/2006 11:50 a 33.3 33.3 33.3 33.4 33.2 91 31.0 2.0 7.0 E 0.01 29.583
04/05/2006 12:00 p 33.3 33.3 33.3 33.4 33.1 88 30.1 3.0 11.0 E 0.00 29.590
04/05/2006 12:10 p 33.0 33.0 33.0 33.1 32.9 87 29.6 4.0 14.0 E 0.00 29.590
04/05/2006 12:20 p 33.3 33.3 33.3 33.6 33.0 83 28.7 3.0 15.0 ESE 0.00 29.591
04/05/2006 12:30 p 34.2 34.2 34.2 34.7 33.6 85 30.2 1.0 7.0 E 0.01 29.593
04/05/2006 12:40 p 35.3 35.3 35.3 36.0 34.7 84 31.0 1.0 4.0 ENE 0.00 29.593
04/05/2006 12:50 p 36.9 36.9 36.9 37.6 36.0 79 31.0 2.0 5.0 E 0.01 29.595
04/05/2006 1:00 p 37.9 37.9 37.9 38.5 37.6 78 31.7 2.0 9.0 E 0.00 29.593
04/05/2006 1:10 p 39.4 39.4 39.4 40.2 38.5 69 30.1 4.0 10.0 E 0.00 29.592
04/05/2006 1:20 p 40.7 40.7 40.7 41.3 40.2 64 29.5 4.0 14.0 E 0.00 29.591
04/05/2006 1:30 p 41.8 41.8 41.8 42.3 41.3 57 27.7 4.0 13.0 E 0.00 29.591
04/05/2006 1:40 p 42.5 42.5 42.5 42.9 42.3 56 27.9 4.0 12.0 E 0.00 29.592
04/05/2006 1:50 p 43.2 43.2 40.6 43.4 42.9 47 24.3 5.0 15.0 E 0.00 29.599
04/05/2006 2:00 p 43.3 43.3 43.3 43.7 43.1 49 25.4 3.0 9.0 E 0.00 29.593
04/05/2006 2:10 p 43.8 43.8 43.8 43.9 43.6 44 23.3 4.0 14.0 E 0.00 29.597
04/05/2006 2:20 p 43.9 43.9 43.9 44.1 43.7 43 22.9 4.0 13.0 E 0.00 29.600
04/05/2006 2:30 p 44.0 44.0 44.0 44.2 43.8 43 23.0 4.0 19.0 E 0.00 29.604
04/05/2006 2:40 p 44.2 44.2 41.6 44.3 44.1 43 23.1 5.0 12.0 E 0.00 29.602
04/05/2006 2:50 p 44.0 44.0 44.0 44.1 44.0 40 21.2 4.0 13.0 E 0.00 29.606
04/05/2006 3:00 p 44.1 44.1 44.1 44.3 44.0 37 19.5 4.0 9.0 E 0.00 29.610
04/05/2006 3:10 p 44.3 44.3 44.3 44.6 44.2 40 21.5 3.0 11.0 E 0.00 29.604
04/05/2006 3:20 p 45.2 45.2 45.2 45.7 44.6 40 22.3 3.0 11.0 E 0.00 29.606
04/05/2006 3:30 p 45.8 45.8 45.8 45.8 45.7 38 21.7 4.0 12.0 E 0.00 29.607
04/05/2006 3:40 p 45.6 45.6 45.6 45.7 45.5 39 22.1 4.0 10.0 E 0.00 29.612
04/05/2006 3:50 p 45.6 45.6 45.6 45.7 45.5 37 20.8 4.0 12.0 E 0.00 29.612
04/05/2006 4:00 p 45.8 45.8 45.8 46.2 45.6 36 20.4 4.0 14.0 E 0.00 29.610
04/05/2006 4:10 p 46.2 46.2 46.2 46.3 46.1 38 22.0 3.0 8.0 E 0.00 29.608
04/05/2006 4:20 p 46.3 46.3 46.3 46.5 46.2 38 22.1 4.0 10.0 E 0.00 29.615
04/05/2006 4:30 p 46.2 46.2 43.7 46.4 46.0 37 21.4 5.0 12.0 E 0.00 29.618
04/05/2006 4:40 p 45.9 45.9 45.9 46.1 45.8 37 21.1 4.0 16.0 E 0.00 29.618
04/05/2006 4:50 p 45.8 45.8 45.8 46.1 45.7 36 20.4 4.0 17.0 ESE 0.00 29.621
04/05/2006 5:00 p 45.9 45.9 45.9 46.1 45.8 37 21.1 4.0 13.0 E 0.00 29.625
04/05/2006 5:10 p 45.9 45.9 45.9 46.0 45.7 37 21.1 4.0 13.0 E 0.00 29.634
04/05/2006 5:20 p 45.7 45.7 45.7 45.7 45.6 38 21.6 3.0 11.0 E 0.00 29.635
04/05/2006 5:30 p 45.5 45.5 45.5 45.6 45.4 36 20.1 3.0 11.0 E 0.00 29.642
04/05/2006 5:40 p 45.2 45.2 45.2 45.4 45.1 37 20.5 3.0 13.0 E 0.00 29.644
04/05/2006 5:50 p 45.1 45.1 45.1 45.2 45.1 36 19.8 3.0 12.0 E 0.00 29.648
04/05/2006 6:00 p 44.8 44.8 44.8 45.1 44.5 36 19.5 4.0 14.0 E 0.00 29.651
04/05/2006 6:10 p 44.5 44.5 44.5 44.6 44.5 36 19.2 3.0 8.0 E 0.00 29.650
04/05/2006 6:20 p 44.7 44.7 44.7 44.7 44.5 36 19.4 4.0 12.0 E 0.00 29.657
04/05/2006 6:30 p 44.4 44.4 44.4 44.5 44.3 37 19.8 2.0 6.0 ESE 0.00 29.661
04/05/2006 6:40 p 44.1 44.1 44.1 44.3 43.9 37 19.5 2.0 7.0 E 0.00 29.669
04/05/2006 6:50 p 43.8 43.8 43.8 43.9 43.7 38 19.9 2.0 8.0 E 0.00 29.669
04/05/2006 7:00 p 43.5 43.5 43.5 43.7 43.3 39 20.2 2.0 9.0 ESE 0.00 29.671
04/05/2006 7:10 p 43.1 43.1 43.1 43.3 42.9 39 19.8 2.0 6.0 E 0.00 29.673
04/05/2006 7:20 p 42.7 42.7 42.7 42.9 42.6 41 20.7 1.0 5.0 E 0.00 29.673
04/05/2006 7:30 p 42.6 42.6 42.6 42.6 42.5 41 20.6 2.0 7.0 E 0.00 29.683
04/05/2006 7:40 p 42.5 42.5 42.5 42.6 42.4 45 22.7 1.0 6.0 E 0.00 29.682
04/05/2006 7:50 p 42.2 42.2 42.2 42.4 41.9 45 22.4 1.0 4.0 E 0.00 29.687
04/05/2006 8:00 p 41.7 41.7 41.7 41.9 41.5 47 23.0 0.0 3.0 E 0.00 29.689
04/05/2006 8:10 p 41.4 41.4 41.4 41.5 41.4 47 22.7 1.0 4.0 E 0.00 29.694
04/05/2006 8:20 p 41.4 41.4 41.4 41.5 41.3 50 24.2 1.0 5.0 ESE 0.00 29.699
04/05/2006 8:30 p 41.3 41.3 41.3 41.4 41.3 51 24.6 2.0 6.0 E 0.00 29.702
04/05/2006 8:40 p 41.3 41.3 41.3 41.4 41.1 52 25.0 1.0 4.0 NE 0.00 29.706
04/05/2006 8:50 p 40.9 40.9 40.9 41.1 40.8 53 25.1 1.0 6.0 E 0.00 29.710
04/05/2006 9:00 p 40.7 40.7 40.7 40.8 40.6 54 25.4 0.0 2.0 E 0.00 29.709
04/05/2006 9:10 p 40.4 40.4 40.4 40.6 40.2 56 26.0 0.0 6.0 E 0.00 29.709
04/05/2006 9:20 p 40.1 40.1 40.1 40.2 40.0 57 26.1 0.0 5.0 E 0.00 29.713
04/05/2006 9:30 p 39.7 39.7 39.7 40.0 39.4 59 26.6 0.0 2.0 E 0.00 29.707
04/05/2006 9:40 p 39.1 39.1 39.1 39.4 38.9 60 26.4 0.0 0.0 --- 0.00 29.711
04/05/2006 9:50 p 38.6 38.6 38.6 38.9 38.4 63 27.1 0.0 0.0 --- 0.00 29.709
04/05/2006 10:00 p 38.1 38.1 38.1 38.4 38.0 64 27.0 0.0 0.0 --- 0.00 29.707
04/05/2006 10:10 p 37.8 37.8 37.8 38.0 37.7 64 26.7 0.0 0.0 --- 0.00 29.709
04/05/2006 10:20 p 37.7 37.7 37.7 37.7 37.6 65 27.0 0.0 0.0 --- 0.00 29.705
04/05/2006 10:30 p 37.5 37.5 37.5 37.6 37.4 67 27.6 0.0 0.0 --- 0.00 29.705
04/05/2006 10:40 p 37.1 37.1 37.1 37.4 36.9 68 27.5 0.0 0.0 --- 0.00 29.703
04/05/2006 10:50 p 36.7 36.7 36.7 36.9 36.5 69 27.5 0.0 0.0 --- 0.00 29.704
04/05/2006 11:00 p 36.3 36.3 36.3 36.5 36.1 70 27.5 0.0 0.0 --- 0.00 29.705
04/05/2006 11:10 p 35.9 35.9 35.9 36.1 35.7 70 27.1 0.0 0.0 --- 0.00 29.707
04/05/2006 11:20 p 35.6 35.6 35.6 35.7 35.5 71 27.1 0.0 0.0 --- 0.00 29.708
04/05/2006 11:30 p 35.4 35.4 35.4 35.5 35.4 70 26.6 0.0 0.0 --- 0.00 29.703
04/05/2006 11:40 p 35.3 35.3 35.3 35.4 35.2 71 26.9 0.0 0.0 --- 0.00 29.709
04/05/2006 11:50 p 35.2 35.2 35.2 35.3 35.1 72 27.1 0.0 0.0 --- 0.00 29.703
04/06/2006 12:00 a 34.9 34.9 34.9 35.1 34.7 74 27.5 0.0 0.0 --- 0.00 29.702
04/06/2006 12:10 a 34.6 34.6 34.6 34.7 34.4 75 27.5 0.0 0.0 --- 0.00 29.704
04/06/2006 12:20 a 34.3 34.3 34.3 34.4 34.2 76 27.5 0.0 0.0 --- 0.00 29.704
04/06/2006 12:30 a 34.1 34.1 34.1 34.2 34.1 76 27.3 0.0 0.0 --- 0.00 29.703
04/06/2006 12:40 a 34.0 34.0 34.0 34.1 33.9 77 27.6 0.0 0.0 --- 0.00 29.702
04/06/2006 12:50 a 33.8 33.8 33.8 33.9 33.7 78 27.7 0.0 0.0 --- 0.00 29.703
04/06/2006 1:00 a 33.7 33.7 33.7 33.7 33.7 78 27.6 0.0 0.0 --- 0.00 29.701
04/06/2006 1:10 a 33.7 33.7 33.7 33.7 33.7 78 27.6 0.0 0.0 --- 0.00 29.702
04/06/2006 1:20 a 33.7 33.7 33.7 33.7 33.6 78 27.6 0.0 0.0 --- 0.00 29.699
04/06/2006 1:30 a 33.9 33.9 33.9 34.2 33.7 78 27.8 0.0 0.0 --- 0.00 29.704
04/06/2006 1:40 a 34.5 34.5 34.5 34.8 34.2 76 27.7 0.0 0.0 --- 0.00 29.702
04/06/2006 1:50 a 35.0 35.0 35.0 35.3 34.8 75 27.9 0.0 0.0 --- 0.00 29.698
04/06/2006 2:00 a 35.5 35.5 35.5 35.7 35.3 74 28.0 0.0 0.0 --- 0.00 29.699
04/06/2006 2:10 a 35.9 35.9 35.9 36.1 35.7 74 28.4 0.0 1.0 --- 0.00 29.703
04/06/2006 2:20 a 36.3 36.3 36.3 36.4 36.1 73 28.5 0.0 1.0 --- 0.00 29.700
04/06/2006 2:30 a 36.6 36.6 36.6 36.8 36.4 71 28.1 0.0 1.0 E 0.00 29.700
04/06/2006 2:40 a 36.9 36.9 36.9 37.0 36.8 72 28.7 0.0 0.0 --- 0.00 29.701
04/06/2006 2:50 a 37.1 37.1 37.1 37.1 37.0 72 28.9 0.0 0.0 --- 0.00 29.699
04/06/2006 3:00 a 37.2 37.2 37.2 37.2 37.1 72 29.0 0.0 0.0 --- 0.00 29.699
04/06/2006 3:10 a 37.2 37.2 37.2 37.3 37.2 72 29.0 0.0 0.0 --- 0.00 29.699
04/06/2006 3:20 a 37.4 37.4 37.4 37.5 37.3 73 29.6 0.0 1.0 --- 0.00 29.701
04/06/2006 3:30 a 37.6 37.6 37.6 37.7 37.5 73 29.7 0.0 0.0 --- 0.00 29.703
04/06/2006 3:40 a 37.8 37.8 37.8 37.9 37.7 72 29.6 0.0 0.0 --- 0.00 29.702
04/06/2006 3:50 a 38.0 38.0 38.0 38.0 37.9 73 30.1 0.0 0.0 --- 0.00 29.703
04/06/2006 4:00 a 38.2 38.2 38.2 38.3 38.0 71 29.6 0.0 1.0 E 0.00 29.704
04/06/2006 4:10 a 38.5 38.5 38.5 38.7 38.3 71 29.9 0.0 2.0 E 0.00 29.707
04/06/2006 4:20 a 38.9 38.9 38.9 39.1 38.7 71 30.3 0.0 2.0 NE 0.00 29.711
04/06/2006 4:30 a 39.3 39.3 39.3 39.5 39.1 70 30.3 1.0 3.0 NE 0.00 29.708
04/06/2006 4:40 a 39.7 39.7 39.7 39.9 39.5 70 30.7 1.0 5.0 ESE 0.00 29.711
04/06/2006 4:50 a 40.0 40.0 40.0 40.1 39.9 70 31.0 0.0 3.0 E 0.00 29.713
04/06/2006 5:00 a 40.1 40.1 40.1 40.2 40.1 70 31.1 0.0 3.0 ENE 0.00 29.721
04/06/2006 5:10 a 40.3 40.3 40.3 40.5 40.2 69 31.0 1.0 4.0 E 0.00 29.726
04/06/2006 5:20 a 40.6 40.6 40.6 40.6 40.5 68 30.9 0.0 2.0 NE 0.00 29.730
04/06/2006 5:30 a 40.8 40.8 40.8 40.8 40.6 68 31.1 1.0 4.0 E 0.00 29.733
04/06/2006 5:40 a 40.8 40.8 40.8 40.8 40.8 67 30.7 0.0 4.0 ENE 0.00 29.738
04/06/2006 5:50 a 40.7 40.7 40.7 40.8 40.7 68 31.0 1.0 4.0 E 0.00 29.740
04/06/2006 6:00 a 40.6 40.6 40.6 40.7 40.6 67 30.5 1.0 5.0 E 0.00 29.748
04/06/2006 6:10 a 40.7 40.7 40.7 40.7 40.7 67 30.6 1.0 5.0 E 0.00 29.755
04/06/2006 6:20 a 40.7 40.7 40.7 40.7 40.7 67 30.6 1.0 4.0 E 0.00 29.763
04/06/2006 6:30 a 40.7 40.7 40.7 40.7 40.7 66 30.2 0.0 3.0 E 0.00 29.767
04/06/2006 6:40 a 40.7 40.7 40.7 40.7 40.7 63 29.1 1.0 8.0 ESE 0.00 29.773
04/06/2006 6:50 a 40.7 40.7 40.7 40.7 40.7 58 27.1 2.0 6.0 E 0.00 29.778
04/06/2006 7:00 a 40.7 40.7 40.7 40.7 40.7 59 27.5 2.0 7.0 ESE 0.00 29.784
04/06/2006 7:10 a 40.7 40.7 40.7 40.7 40.7 59 27.5 1.0 5.0 E 0.00 29.792
04/06/2006 7:20 a 40.7 40.7 40.7 40.7 40.7 58 27.1 2.0 5.0 SSE 0.00 29.796
04/06/2006 7:30 a 40.7 40.7 40.7 40.8 40.7 57 26.7 2.0 5.0 E 0.00 29.800
04/06/2006 7:40 a 40.8 40.8 40.8 40.8 40.8 57 26.8 2.0 10.0 SSE 0.00 29.805
04/06/2006 7:50 a 40.9 40.9 40.9 40.9 40.8 55 26.0 2.0 6.0 ESE 0.00 29.805
04/06/2006 8:00 a 41.0 41.0 41.0 41.1 40.9 54 25.6 3.0 7.0 SSE 0.00 29.806
04/06/2006 8:10 a 41.3 41.3 41.3 41.5 41.1 54 25.9 2.0 6.0 SSE 0.00 29.808
04/06/2006 8:20 a 41.4 41.4 41.4 41.5 41.3 54 26.0 3.0 7.0 SSE 0.00 29.805
04/06/2006 8:30 a 41.3 41.3 41.3 41.3 41.3 54 25.9 3.0 11.0 E 0.00 29.806
04/06/2006 8:40 a 41.3 41.3 41.3 41.3 41.3 54 25.9 3.0 6.0 E 0.00 29.809
04/06/2006 8:50 a 41.3 41.3 41.3 41.3 41.3 55 26.4 3.0 8.0 E 0.00 29.811
04/06/2006 9:00 a 41.3 41.3 41.3 41.4 41.3 55 26.4 3.0 8.0 E 0.00 29.812
04/06/2006 9:10 a 41.5 41.5 41.5 41.6 41.4 57 27.4 2.0 8.0 ESE 0.00 29.811
04/06/2006 9:20 a 41.7 41.7 41.7 41.8 41.6 55 26.7 3.0 8.0 E 0.00 29.813
04/06/2006 9:30 a 41.8 41.8 41.8 42.1 41.7 55 26.8 2.0 7.0 E 0.00 29.813
04/06/2006 9:40 a 42.4 42.4 42.4 42.8 42.1 55 27.4 4.0 10.0 E 0.00 29.811
04/06/2006 9:50 a 43.3 43.3 43.3 43.9 42.8 54 27.8 3.0 8.0 E 0.00 29.811
04/06/2006 10:00 a 44.2 44.2 44.2 44.3 43.9 54 28.6 2.0 7.0 E 0.00 29.811
04/06/2006 10:10 a 44.4 44.4 44.4 44.4 44.3 52 27.9 2.0 5.0 ESE 0.00 29.814
04/06/2006 10:20 a 44.4 44.4 44.4 44.5 44.4 53 28.4 2.0 9.0 E 0.00 29.815
04/06/2006 10:30 a 44.4 44.4 44.4 44.6 44.3 51 27.4 3.0 8.0 SSE 0.00 29.816
04/06/2006 10:40 a 45.2 45.2 45.2 46.0 44.6 51 28.2 3.0 7.0 E 0.00 29.814
04/06/2006 10:50 a 46.6 46.6 46.6 47.0 46.0 53 30.4 2.0 7.0 E 0.00 29.812
04/06/2006 11:00 a 46.8 46.8 46.8 47.1 46.5 50 29.2 4.0 10.0 E 0.00 29.812
04/06/2006 11:10 a 46.9 46.9 46.9 47.2 46.7 51 29.7 3.0 8.0 E 0.00 29.807
04/06/2006 11:20 a 47.7 47.7 47.7 48.1 47.2 48 29.0 2.0 9.0 E 0.00 29.803
04/06/2006 11:30 a 47.9 47.9 47.9 48.2 47.6 49 29.7 2.0 7.0 E 0.00 29.798
04/06/2006 11:40 a 47.8 47.8 47.8 47.9 47.8 48 29.1 2.0 6.0 E 0.00 29.799
04/06/2006 11:50 a 47.7 47.7 47.7 47.9 47.6 49 29.5 2.0 7.0 E 0.00 29.802
04/06/2006 12:00 p 48.0 48.0 48.0 48.5 47.6 48 29.3 2.0 8.0 E 0.00 29.798
04/06/2006 12:10 p 48.5 48.5 48.5 48.6 48.5 49 30.2 1.0 5.0 E 0.00 29.795
04/06/2006 12:20 p 49.1 49.1 49.1 49.4 48.6 49 30.8 2.0 7.0 E 0.00 29.795
04/06/2006 12:30 p 49.9 49.9 49.9 50.2 49.3 46 30.0 2.0 6.0 E 0.00 29.796
04/06/2006 12:40 p 50.1 50.1 50.1 50.2 49.9 46 30.1 2.0 8.0 E 0.00 29.793
04/06/2006 12:50 p 50.1 50.1 50.1 50.2 50.0 45 29.6 2.0 6.0 E 0.00 29.795
04/06/2006 1:00 p 49.9 49.9 49.9 50.1 49.8 48 31.0 2.0 6.0 E 0.00 29.795
04/06/2006 1:10 p 50.5 50.5 50.5 50.7 50.1 47 31.0 3.0 8.0 E 0.00 29.798
04/06/2006 1:20 p 50.4 50.4 50.4 50.8 49.7 46 30.4 3.0 10.0 ESE 0.00 29.797
04/06/2006 1:30 p 50.3 50.3 50.3 51.5 49.7 46 30.3 2.0 9.0 ESE 0.00 29.792
04/06/2006 1:40 p 51.5 51.5 51.5 51.7 51.3 46 31.4 3.0 7.0 E 0.00 29.794
04/06/2006 1:50 p 52.2 52.2 52.2 52.6 51.7 45 31.5 2.0 7.0 E 0.00 29.797
04/06/2006 2:00 p 52.8 52.8 52.8 52.9 52.5 45 32.1 2.0 7.0 E 0.00 29.794
04/06/2006 2:10 p 52.3 52.3 52.3 52.5 52.0 44 31.1 3.0 11.0 E 0.00 29.794
04/06/2006 2:20 p 51.8 51.8 51.8 52.0 51.5 44 30.6 3.0 8.0 E 0.00 29.796
04/06/2006 2:30 p 51.4 51.4 51.4 51.5 51.3 45 30.8 2.0 10.0 SE 0.00 29.790
04/06/2006 2:40 p 51.1 51.1 51.1 51.3 51.0 46 31.1 2.0 11.0 E 0.00 29.783
04/06/2006 2:50 p 51.3 51.3 51.3 51.5 51.1 44 30.1 2.0 7.0 E 0.00 29.783
04/06/2006 3:00 p 51.1 51.1 51.1 51.3 51.0 45 30.5 3.0 8.0 ESE 0.00 29.782
04/06/2006 3:10 p 51.3 51.3 51.3 51.5 51.2 44 30.1 4.0 11.0 E 0.00 29.772
04/06/2006 3:20 p 51.7 51.7 51.7 51.9 51.5 43 29.9 2.0 7.0 E 0.00 29.777
04/06/2006 3:30 p 51.7 51.7 51.7 51.8 51.6 46 31.6 1.0 6.0 E 0.00 29.764
04/06/2006 3:40 p 52.1 52.1 52.1 52.2 51.8 44 30.9 2.0 7.0 E 0.00 29.763
04/06/2006 3:50 p 51.7 51.7 51.7 52.1 51.3 44 30.5 3.0 7.0 E 0.00 29.763
04/06/2006 4:00 p 51.3 51.3 51.3 51.4 51.2 45 30.7 2.0 6.0 ESE 0.00 29.764
04/06/2006 4:10 p 51.8 51.8 51.8 52.1 51.4 43 30.0 2.0 8.0 E 0.00 29.762
04/06/2006 4:20 p 52.0 52.0 52.0 52.2 51.7 44 30.8 2.0 6.0 E 0.00 29.772
04/06/2006 4:30 p 51.5 51.5 51.5 51.7 51.3 44 30.3 2.0 5.0 E 0.00 29.773
04/06/2006 4:40 p 51.6 51.6 51.6 51.7 51.3 43 29.9 2.0 8.0 E 0.00 29.775
04/06/2006 4:50 p 51.5 51.5 51.5 51.6 51.5 43 29.8 2.0 6.0 E 0.00 29.771
04/06/2006 5:00 p 52.0 52.0 52.0 52.4 51.6 42 29.6 2.0 8.0 E 0.00 29.772
04/06/2006 5:10 p 52.1 52.1 52.1 52.4 51.8 42 29.7 3.0 7.0 E 0.00 29.771
04/06/2006 5:20 p 52.0 52.0 52.0 52.4 51.8 43 30.2 1.0 6.0 E 0.00 29.765
04/06/2006 5:30 p 52.5 52.5 52.5 52.6 52.3 43 30.7 2.0 8.0 ESE 0.00 29.769
04/06/2006 5:40 p 52.4 52.4 52.4 52.4 52.4 42 30.0 2.0 8.0 E 0.00 29.763
04/06/2006 5:50 p 52.4 52.4 52.4 52.4 52.3 43 30.6 1.0 5.0 E 0.00 29.770
04/06/2006 6:00 p 52.2 52.2 52.2 52.3 52.1 43 30.4 1.0 6.0 E 0.00 29.768
04/06/2006 6:10 p 52.1 52.1 52.1 52.1 52.0 44 30.9 1.0 6.0 E 0.00 29.771
04/06/2006 6:20 p 52.0 52.0 52.0 52.1 52.0 45 31.3 0.0 3.0 E 0.00 29.771
04/06/2006 6:30 p 51.8 51.8 51.8 52.0 51.6 46 31.7 0.0 3.0 E 0.00 29.776
04/06/2006 6:40 p 51.4 51.4 51.4 51.6 51.1 47 31.9 0.0 2.0 N 0.00 29.778
04/06/2006 6:50 p 50.9 50.9 50.9 51.1 50.7 47 31.4 0.0 3.0 N 0.00 29.778
04/06/2006 7:00 p 50.7 50.7 50.7 50.8 50.5 48 31.7 0.0 3.0 NE 0.00 29.782
04/06/2006 7:10 p 50.3 50.3 50.3 50.6 50.1 48 31.4 0.0 3.0 ENE 0.00 29.786
04/06/2006 7:20 p 49.9 49.9 49.9 50.1 49.6 49 31.5 0.0 0.0 --- 0.00 29.783
04/06/2006 7:30 p 49.3 49.3 49.3 49.6 49.1 49 31.0 0.0 0.0 --- 0.00 29.790
04/06/2006 7:40 p 48.9 48.9 48.9 49.1 48.6 51 31.6 0.0 0.0 --- 0.00 29.794
04/06/2006 7:50 p 48.2 48.2 48.2 48.6 47.9 53 31.9 0.0 0.0 --- 0.00 29.793
04/06/2006 8:00 p 47.6 47.6 47.6 47.9 47.3 55 32.2 0.0 0.0 --- 0.00 29.799
04/06/2006 8:10 p 47.0 47.0 47.0 47.3 46.6 56 32.1 0.0 0.0 --- 0.00 29.804
04/06/2006 8:20 p 46.3 46.3 46.3 46.6 46.0 57 31.9 0.0 0.0 --- 0.00 29.810
04/06/2006 8:30 p 45.7 45.7 45.7 46.0 45.4 58 31.8 0.0 0.0 --- 0.00 29.814
04/06/2006 8:40 p 45.1 45.1 45.1 45.4 44.8 59 31.6 0.0 0.0 --- 0.00 29.809
04/06/2006 8:50 p 44.6 44.6 44.6 44.8 44.5 59 31.2 0.0 0.0 --- 0.00 29.813
04/06/2006 9:00 p 44.3 44.3 44.3 44.5 44.2 63 32.5 0.0 0.0 --- 0.00 29.814
04/06/2006 9:10 p 44.0 44.0 44.0 44.2 43.8 63 32.2 0.0 0.0 --- 0.00 29.820
04/06/2006 9:20 p 43.6 43.6 43.6 43.8 43.3 63 31.9 0.0 0.0 --- 0.00 29.819
04/06/2006 9:30 p 43.1 43.1 43.1 43.3 43.0 64 31.8 0.0 0.0 --- 0.00 29.823
04/06/2006 9:40 p 42.8 42.8 42.8 43.0 42.7 64 31.5 0.0 0.0 --- 0.00 29.826
04/06/2006 9:50 p 42.6 42.6 42.6 42.7 42.5 66 32.1 0.0 0.0 --- 0.00 29.825
04/06/2006 10:00 p 42.3 42.3 42.3 42.5 42.1 68 32.5 0.0 0.0 --- 0.00 29.824
04/06/2006 10:10 p 41.9 41.9 41.9 42.1 41.6 69 32.5 0.0 0.0 --- 0.00 29.825
04/06/2006 10:20 p 41.4 41.4 41.4 41.7 41.2 69 32.0 0.0 0.0 --- 0.00 29.820
04/06/2006 10:30 p 41.1 41.1 41.1 41.2 40.9 71 32.4 0.0 0.0 --- 0.00 29.818
04/06/2006 10:40 p 40.6 40.6 40.6 40.9 40.4 71 31.9 0.0 0.0 --- 0.00 29.808
04/06/2006 10:50 p 40.4 40.4 40.4 40.4 40.3 72 32.1 0.0 0.0 --- 0.00 29.811
04/06/2006 11:00 p 40.0 40.0 40.0 40.3 39.6 74 32.4 0.0 0.0 --- 0.00 29.814
04/06/2006 11:10 p 39.4 39.4 39.4 39.6 39.3 74 31.8 0.0 0.0 --- 0.00 29.807
04/06/2006 11:20 p 39.0 39.0 39.0 39.2 38.8 75 31.8 0.0 0.0 --- 0.00 29.813
04/06/2006 11:30 p 38.6 38.6 38.6 38.8 38.5 76 31.7 0.0 0.0 --- 0.00 29.809
04/06/2006 11:40 p 38.4 38.4 38.4 38.5 38.3 77 31.8 0.0 0.0 --- 0.00 29.812
04/06/2006 11:50 p 38.1 38.1 38.1 38.3 37.9 76 31.2 0.0 0.0 --- 0.00 29.812
04/07/2006 12:00 a 37.7 37.7 37.7 37.9 37.5 78 31.5 0.0 0.0 --- 0.00 29.812
04/07/2006 12:10 a 37.3 37.3 37.3 37.5 37.0 78 31.1 0.0 0.0 --- 0.00 29.810
04/07/2006 12:20 a 36.9 36.9 36.9 37.0 36.8 79 31.0 0.0 0.0 --- 0.00 29.813
04/07/2006 12:30 a 36.7 36.7 36.7 36.8 36.6 80 31.1 0.0 0.0 --- 0.00 29.805
04/07/2006 12:40 a 36.5 36.5 36.5 36.6 36.4 80 30.9 0.0 0.0 --- 0.00 29.808
04/07/2006 12:50 a 36.4 36.4 36.4 36.4 36.3 81 31.1 0.0 0.0 --- 0.00 29.806
04/07/2006 1:00 a 36.3 36.3 36.3 36.3 36.2 81 31.0 0.0 0.0 --- 0.00 29.804
04/07/2006 1:10 a 36.1 36.1 36.1 36.2 35.9 82 31.1 0.0 0.0 --- 0.00 29.806
04/07/2006 1:20 a 35.8 35.8 35.8 36.0 35.7 82 30.9 0.0 0.0 --- 0.00 29.804
04/07/2006 1:30 a 35.6 35.6 35.6 35.7 35.5 83 31.0 0.0 0.0 --- 0.00 29.805
04/07/2006 1:40 a 35.4 35.4 35.4 35.5 35.3 83 30.8 0.0 0.0 --- 0.00 29.806
04/07/2006 1:50 a 35.3 35.3 35.3 35.4 35.2 84 31.0 0.0 0.0 --- 0.00 29.805
04/07/2006 2:00 a 35.2 35.2 35.2 35.3 35.1 83 30.6 0.0 0.0 --- 0.00 29.801
04/07/2006 2:10 a 35.0 35.0 35.0 35.1 34.9 84 30.7 0.0 0.0 --- 0.00 29.802
04/07/2006 2:20 a 34.9 34.9 34.9 35.0 34.8 84 30.6 0.0 0.0 --- 0.00 29.799
04/07/2006 2:30 a 34.7 34.7 34.7 34.8 34.7 84 30.4 0.0 0.0 --- 0.00 29.799
04/07/2006 2:40 a 34.5 34.5 34.5 34.7 34.3 85 30.5 0.0 0.0 --- 0.00 29.800
04/07/2006 2:50 a 34.1 34.1 34.1 34.3 33.9 84 29.8 0.0 0.0 --- 0.00 29.795
04/07/2006 3:00 a 33.8 33.8 33.8 34.0 33.7 86 30.1 0.0 0.0 --- 0.00 29.794
04/07/2006 3:10 a 33.7 33.7 33.7 33.8 33.6 86 30.0 0.0 0.0 --- 0.00 29.792
04/07/2006 3:20 a 33.5 33.5 33.5 33.6 33.5 86 29.8 0.0 0.0 --- 0.00 29.783
04/07/2006 3:30 a 33.4 33.4 33.4 33.5 33.4 86 29.7 0.0 0.0 --- 0.00 29.782
04/07/2006 3:40 a 33.4 33.4 33.4 33.4 33.3 87 30.0 0.0 0.0 --- 0.00 29.780
04/07/2006 3:50 a 33.3 33.3 33.3 33.4 33.3 87 29.9 0.0 0.0 --- 0.00 29.779
04/07/2006 4:00 a 33.3 33.3 33.3 33.4 33.3 86 29.6 0.0 0.0 --- 0.00 29.775
04/07/2006 4:10 a 33.2 33.2 33.2 33.3 33.1 87 29.8 0.0 0.0 --- 0.00 29.775
04/07/2006 4:20 a 33.2 33.2 33.2 33.2 33.1 87 29.8 0.0 0.0 --- 0.00 29.767
04/07/2006 4:30 a 33.1 33.1 33.1 33.1 33.0 87 29.7 0.0 0.0 --- 0.00 29.767
04/07/2006 4:40 a 33.0 33.0 33.0 33.0 32.8 87 29.6 0.0 0.0 --- 0.00 29.763
04/07/2006 4:50 a 32.7 32.7 32.7 32.8 32.6 87 29.3 0.0 0.0 --- 0.00 29.761
04/07/2006 5:00 a 32.5 32.5 32.5 32.6 32.5 88 29.3 0.0 0.0 --- 0.00 29.757
04/07/2006 5:10 a 32.6 32.6 32.6 32.6 32.5 88 29.4 0.0 0.0 --- 0.00 29.755
04/07/2006 5:20 a 32.6 32.6 32.6 32.7 32.6 88 29.4 0.0 0.0 --- 0.00 29.753
04/07/2006 5:30 a 32.7 32.7 32.7 32.7 32.6 88 29.5 0.0 0.0 --- 0.00 29.753
04/07/2006 5:40 a 32.7 32.7 32.7 32.8 32.7 88 29.5 0.0 0.0 --- 0.00 29.752
04/07/2006 5:50 a 32.8 32.8 32.8 32.8 32.7 88 29.6 0.0 0.0 --- 0.00 29.753
04/07/2006 6:00 a 32.9 32.9 32.9 33.0 32.8 89 30.0 0.0 0.0 --- 0.00 29.748
04/07/2006 6:10 a 33.0 33.0 33.0 33.0 32.9 88 29.8 0.0 0.0 --- 0.00 29.736
04/07/2006 6:20 a 33.0 33.0 33.0 33.0 32.9 89 30.1 0.0 0.0 --- 0.00 29.730
04/07/2006 6:30 a 33.3 33.3 33.3 33.9 33.0 91 31.0 0.0 0.0 --- 0.00 29.731
04/07/2006 6:40 a 34.1 34.1 34.1 34.1 33.9 89 31.2 0.0 0.0 --- 0.00 29.729
04/07/2006 6:50 a 34.1 34.1 34.1 34.1 34.0 88 30.9 0.0 0.0 --- 0.00 29.726
04/07/2006 7:00 a 34.1 34.1 34.1 34.3 34.1 88 30.9 0.0 0.0 --- 0.00 29.727
04/07/2006 7:10 a 34.7 34.7 34.7 35.2 34.3 88 31.5 0.0 0.0 --- 0.00 29.731
04/07/2006 7:20 a 35.5 35.5 35.5 35.9 35.2 88 32.3 0.0 0.0 --- 0.00 29.718
04/07/2006 7:30 a 36.4 36.4 36.4 36.9 35.9 87 32.9 0.0 0.0 --- 0.00 29.713
04/07/2006 7:40 a 37.3 37.3 37.3 37.7 36.9 85 33.2 0.0 0.0 --- 0.00 29.712
04/07/2006 7:50 a 38.2 38.2 38.2 38.8 37.7 84 33.8 0.0 0.0 --- 0.00 29.717
04/07/2006 8:00 a 39.5 39.5 39.5 40.0 38.8 85 35.4 0.0 0.0 --- 0.00 29.712
04/07/2006 8:10 a 40.5 40.5 40.5 41.1 40.0 79 34.5 0.0 1.0 ENE 0.00 29.702
04/07/2006 8:20 a 41.7 41.7 41.7 42.2 41.1 77 35.0 0.0 0.0 --- 0.00 29.697
04/07/2006 8:30 a 42.7 42.7 42.7 43.1 42.2 75 35.3 0.0 1.0 ENE 0.00 29.696
04/07/2006 8:40 a 43.4 43.4 43.4 43.8 43.1 75 36.0 0.0 0.0 --- 0.00 29.692
04/07/2006 8:50 a 44.1 44.1 44.1 44.4 43.8 76 37.0 0.0 1.0 ENE 0.00 29.683
04/07/2006 9:00 a 44.8 44.8 44.8 45.2 44.4 75 37.4 0.0 1.0 ENE 0.00 29.678
04/07/2006 9:10 a 45.5 45.5 45.5 45.9 45.2 74 37.7 0.0 1.0 ENE 0.00 29.678
04/07/2006 9:20 a 46.2 46.2 46.2 46.6 45.9 74 38.4 0.0 1.0 ENE 0.00 29.663
04/07/2006 9:30 a 47.0 47.0 47.0 47.6 46.6 73 38.8 0.0 1.0 --- 0.00 29.675
04/07/2006 9:40 a 48.1 48.1 48.1 48.5 47.6 72 39.5 0.0 1.0 ENE 0.00 29.675
04/07/2006 9:50 a 49.0 49.0 49.0 49.5 48.5 71 40.0 0.0 0.0 --- 0.00 29.665
04/07/2006 10:00 a 50.1 50.1 50.1 50.6 49.5 73 41.8 0.0 2.0 NNE 0.00 29.665
04/07/2006 10:10 a 51.2 51.2 51.2 51.7 50.6 73 42.9 0.0 3.0 NNE 0.00 29.653
04/07/2006 10:20 a 52.0 52.0 52.0 52.2 51.6 72 43.3 1.0 3.0 NNW 0.00 29.653
04/07/2006 10:30 a 52.4 52.4 52.4 52.5 52.2 73 44.0 0.0 2.0 NW 0.00 29.643
04/07/2006 10:40 a 52.7 52.7 52.7 52.9 52.5 72 43.9 0.0 1.0 NNE 0.00 29.634
04/07/2006 10:50 a 53.1 53.1 53.1 53.2 52.9 73 44.7 0.0 3.0 N 0.00 29.627
04/07/2006 11:00 a 53.2 53.2 53.2 53.3 53.2 74 45.1 0.0 3.0 SE 0.00 29.629
04/07/2006 11:10 a 53.3 53.3 53.3 53.3 53.3 74 45.2 0.0 0.0 --- 0.00 29.619
04/07/2006 11:20 a 53.3 53.3 53.3 53.4 53.3 76 45.9 0.0 0.0 --- 0.00 29.619
04/07/2006 11:30 a 53.3 53.3 53.3 53.4 53.2 79 47.0 0.0 1.0 SE 0.00 29.613
04/07/2006 11:40 a 53.0 53.0 53.0 53.2 52.7 82 47.7 0.0 3.0 SE 0.00 29.606
04/07/2006 11:50 a 52.4 52.4 52.4 52.7 52.2 84 47.7 0.0 1.0 SE 0.00 29.600
04/07/2006 12:00 p 52.1 52.1 52.1 52.2 52.0 86 48.0 0.0 0.0 --- 0.00 29.598
04/07/2006 12:10 p 52.1 52.1 52.1 52.1 52.0 87 48.4 0.0 0.0 --- 0.01 29.593
04/07/2006 12:20 p 52.1 52.1 52.1 52.1 52.1 87 48.4 0.0 0.0 --- 0.00 29.586
04/07/2006 12:30 p 52.2 52.2 52.2 52.2 52.1 89 49.1 0.0 0.0 --- 0.00 29.586
04/07/2006 12:40 p 52.2 52.2 52.2 52.4 52.2 90 49.4 0.0 0.0 --- 0.01 29.580
04/07/2006 12:50 p 52.5 52.5 52.5 52.6 52.3 92 50.2 0.0 0.0 --- 0.00 29.576
04/07/2006 1:00 p 52.9 52.9 52.9 53.2 52.6 91 50.3 0.0 1.0 --- 0.00 29.563
04/07/2006 1:10 p 53.6 53.6 53.6 54.0 53.2 91 51.0 0.0 1.0 SE 0.00 29.554
04/07/2006 1:20 p 54.4 54.4 54.4 54.6 54.0 89 51.2 0.0 2.0 SE 0.00 29.549
04/07/2006 1:30 p 54.6 54.6 54.6 54.6 54.5 89 51.4 0.0 2.0 NW 0.00 29.549
04/07/2006 1:40 p 54.5 54.5 54.5 54.6 54.5 89 51.3 0.0 2.0 NW 0.00 29.550
04/07/2006 1:50 p 54.4 54.4 54.4 54.5 54.3 89 51.2 0.0 2.0 NNE 0.01 29.531
04/07/2006 2:00 p 54.4 54.4 54.4 54.5 54.3 89 51.2 0.0 3.0 NW 0.00 29.488
04/07/2006 2:10 p 54.7 54.7 54.7 54.9 54.5 88 51.2 1.0 4.0 W 0.00 29.434
04/07/2006 2:20 p 54.9 54.9 54.9 55.0 54.8 89 51.7 0.0 2.0 NNW 0.00 29.489
04/07/2006 2:30 p 55.2 55.2 55.2 55.5 54.9 88 51.7 0.0 1.0 NNW 0.00 29.497
04/07/2006 2:40 p 55.7 55.7 55.7 55.9 55.5 87 51.9 0.0 3.0 NNW 0.00 29.494
04/07/2006 2:50 p 56.1 56.1 56.1 56.4 55.9 86 52.0 0.0 2.0 NW 0.00 29.484
04/07/2006 3:00 p 57.0 57.0 57.0 57.4 56.4 85 52.5 0.0 3.0 WSW 0.00 29.470
04/07/2006 3:10 p 57.9 57.9 57.9 58.5 57.4 84 53.1 0.0 3.0 SSE 0.00 29.457
04/07/2006 3:20 p 59.0 59.0 59.0 59.3 58.5 81 53.2 0.0 3.0 WNW 0.00 29.457
04/07/2006 3:30 p 59.4 59.4 59.4 59.7 59.3 80 53.2 0.0 3.0 SE 0.00 29.449
04/07/2006 3:40 p 60.0 60.0 60.0 60.5 59.7 78 53.1 0.0 3.0 ESE 0.00 29.453
04/07/2006 3:50 p 61.0 61.0 61.0 61.5 60.5 75 53.0 0.0 3.0 ESE 0.00 29.450
04/07/2006 4:00 p 61.9 61.9 61.9 62.5 61.5 75 53.9 0.0 3.0 W 0.00 29.446
04/07/2006 4:10 p 63.0 63.0 63.0 63.4 62.5 73 54.2 1.0 4.0 E 0.00 29.443
04/07/2006 4:20 p 63.6 63.6 63.6 63.9 63.3 71 54.0 1.0 4.0 NW 0.00 29.437
04/07/2006 4:30 p 64.0 64.0 64.0 64.1 63.9 71 54.4 0.0 2.0 NE 0.00 29.430
04/07/2006 4:40 p 64.3 64.3 64.3 64.5 64.1 70 54.3 0.0 3.0 WNW 0.00 29.429
04/07/2006 4:50 p 64.3 64.3 64.3 64.5 64.2 70 54.3 1.0 5.0 NW 0.00 29.431
04/07/2006 5:00 p 64.8 64.8 64.8 65.4 64.3 68 54.0 0.0 2.0 SSE 0.00 29.431
04/07/2006 5:10 p 65.8 65.8 65.8 66.0 65.4 65 53.7 0.0 3.0 SSE 0.00 29.419
04/07/2006 5:20 p 66.0 66.0 66.0 66.0 66.0 62 52.6 1.0 5.0 WNW 0.00 29.422
04/07/2006 5:30 p 65.9 65.9 65.9 66.0 65.8 62 52.5 0.0 3.0 SE 0.00 29.423
04/07/2006 5:40 p 66.0 66.0 66.0 66.1 65.9 61 52.2 0.0 3.0 SE 0.00 29.418
04/07/2006 5:50 p 66.1 66.1 66.1 66.1 66.0 61 52.3 0.0 2.0 NW 0.00 29.418
04/07/2006 6:00 p 66.0 66.0 66.0 66.1 66.0 60 51.7 0.0 2.0 SE 0.00 29.422
04/07/2006 6:10 p 65.8 65.8 65.8 66.0 65.7 60 51.5 0.0 3.0 W 0.00 29.419
04/07/2006 6:20 p 65.7 65.7 65.7 65.8 65.7 60 51.5 0.0 3.0 SSE 0.00 29.412
04/07/2006 6:30 p 65.6 65.6 65.6 65.7 65.5 60 51.4 0.0 3.0 NW 0.00 29.419
04/07/2006 6:40 p 65.2 65.2 65.2 65.5 65.0 60 51.0 0.0 3.0 ESE 0.00 29.419
04/07/2006 6:50 p 64.9 64.9 64.9 65.0 64.7 61 51.1 0.0 3.0 E 0.00 29.425
04/07/2006 7:00 p 64.6 64.6 64.6 64.8 64.3 62 51.3 0.0 1.0 E 0.00 29.427
04/07/2006 7:10 p 64.1 64.1 64.1 64.3 63.9 63 51.3 0.0 1.0 NNE 0.00 29.428
04/07/2006 7:20 p 63.7 63.7 63.7 64.0 63.5 64 51.3 0.0 0.0 --- 0.00 29.432
04/07/2006 7:30 p 63.2 63.2 63.2 63.5 63.0 64 50.8 0.0 2.0 NNE 0.00 29.424
04/07/2006 7:40 p 62.9 62.9 62.9 63.0 62.7 65 51.0 0.0 3.0 N 0.00 29.428
04/07/2006 7:50 p 62.5 62.5 62.5 62.7 62.4 65 50.6 0.0 1.0 NW 0.00 29.433
04/07/2006 8:00 p 62.2 62.2 62.2 62.4 62.1 66 50.7 0.0 1.0 NW 0.00 29.434
04/07/2006 8:10 p 61.9 61.9 61.9 62.1 61.6 67 50.8 0.0 0.0 --- 0.00 29.429
04/07/2006 8:20 p 61.4 61.4 61.4 61.7 61.2 67 50.4 0.0 0.0 --- 0.00 29.432
04/07/2006 8:30 p 60.9 60.9 60.9 61.1 60.5 68 50.3 0.0 0.0 --- 0.00 29.437
04/07/2006 8:40 p 60.2 60.2 60.2 60.5 59.9 69 50.0 0.0 0.0 --- 0.00 29.435
04/07/2006 8:50 p 59.6 59.6 59.6 59.9 59.4 70 49.8 0.0 0.0 --- 0.00 29.439
04/07/2006 9:00 p 59.1 59.1 59.1 59.3 58.8 71 49.7 0.0 0.0 --- 0.00 29.439
04/07/2006 9:10 p 58.4 58.4 58.4 58.8 58.0 73 49.8 0.0 0.0 --- 0.00 29.429
04/07/2006 9:20 p 57.5 57.5 57.5 57.9 57.2 73 48.9 0.0 0.0 --- 0.00 29.423
04/07/2006 9:30 p 56.8 56.8 56.8 57.2 56.6 76 49.3 0.0 0.0 --- 0.00 29.425
04/07/2006 9:40 p 56.4 56.4 56.4 56.6 56.2 77 49.3 0.0 0.0 --- 0.00 29.432
04/07/2006 9:50 p 56.0 56.0 56.0 56.2 55.9 78 49.2 0.0 0.0 --- 0.00 29.437
04/07/2006 10:00 p 56.1 56.1 56.1 56.1 56.0 77 49.0 0.0 0.0 --- 0.00 29.429
04/07/2006 10:10 p 55.8 55.8 55.8 56.0 55.7 79 49.4 0.0 0.0 --- 0.00 29.425
04/07/2006 10:20 p 55.5 55.5 55.5 55.7 55.3 80 49.4 0.0 0.0 --- 0.00 29.422
04/07/2006 10:30 p 55.2 55.2 55.2 55.3 55.1 80 49.1 0.0 0.0 --- 0.00 29.418
04/07/2006 10:40 p 55.0 55.0 55.0 55.2 55.0 82 49.6 0.0 0.0 --- 0.00 29.427
04/07/2006 10:50 p 55.3 55.3 55.3 56.2 55.0 79 48.9 1.0 8.0 SSE 0.00 29.460
04/07/2006 11:00 p 57.8 57.8 57.8 58.9 56.3 73 49.2 1.0 5.0 S 0.00 29.451
04/07/2006 11:10 p 59.8 59.8 59.8 60.2 58.9 70 50.0 1.0 4.0 SSE 0.00 29.456
04/07/2006 11:20 p 60.3 60.3 60.3 60.4 60.2 70 50.5 0.0 0.0 --- 0.00 29.445
04/07/2006 11:30 p 59.9 59.9 59.9 60.2 59.6 71 50.5 0.0 0.0 --- 0.00 29.433
04/07/2006 11:40 p 59.3 59.3 59.3 59.6 58.9 73 50.7 0.0 0.0 --- 0.00 29.433
04/07/2006 11:50 p 58.5 58.5 58.5 58.9 58.1 74 50.3 0.0 0.0 --- 0.00 29.421
04/08/2006 12:00 a 57.7 57.7 57.7 58.1 57.3 76 50.2 0.0 0.0 --- 0.00 29.421
04/08/2006 12:10 a 57.0 57.0 57.0 57.3 56.7 78 50.2 0.0 1.0 SSE 0.00 29.427
04/08/2006 12:20 a 56.5 56.5 56.5 56.7 56.3 80 50.4 0.0 1.0 SSE 0.00 29.431
04/08/2006 12:30 a 56.5 56.5 56.5 56.6 56.3 80 50.4 0.0 1.0 SSE 0.00 29.427
04/08/2006 12:40 a 56.8 56.8 56.8 57.1 56.6 79 50.4 0.0 4.0 SE 0.00 29.441
04/08/2006 12:50 a 57.1 57.1 57.1 57.2 57.1 80 51.0 0.0 0.0 --- 0.00 29.454
04/08/2006 1:00 a 56.9 56.9 56.9 57.1 56.8 81 51.1 0.0 0.0 --- 0.00 29.447
04/08/2006 1:10 a 56.6 56.6 56.6 56.8 56.3 83 51.5 0.0 0.0 --- 0.01 29.451
04/08/2006 1:20 a 56.0 56.0 56.0 56.3 55.8 85 51.6 0.0 0.0 --- 0.00 29.442
04/08/2006 1:30 a 55.5 55.5 55.5 55.8 55.3 88 52.0 0.0 0.0 --- 0.00 29.443
04/08/2006 1:40 a 55.1 55.1 55.1 55.3 55.1 88 51.6 0.0 0.0 --- 0.00 29.441
04/08/2006 1:50 a 55.0 55.0 55.0 55.1 54.7 88 51.5 0.0 0.0 --- 0.00 29.444
04/08/2006 2:00 a 54.6 54.6 54.6 54.7 54.5 90 51.7 0.0 0.0 --- 0.00 29.446
04/08/2006 2:10 a 54.4 54.4 54.4 54.5 54.3 90 51.5 0.0 0.0 --- 0.00 29.444
04/08/2006 2:20 a 54.8 54.8 54.8 55.5 54.3 87 51.0 0.0 1.0 --- 0.00 29.424
04/08/2006 2:30 a 56.2 56.2 56.2 56.8 55.5 84 51.4 0.0 0.0 --- 0.00 29.421
04/08/2006 2:40 a 56.7 56.7 56.7 56.9 56.5 84 51.9 0.0 0.0 --- 0.00 29.421
04/08/2006 2:50 a 55.9 55.9 55.9 56.5 55.4 86 51.8 0.0 1.0 --- 0.00 29.422
04/08/2006 3:00 a 55.1 55.1 55.1 55.4 54.9 87 51.3 0.0 0.0 --- 0.00 29.425
04/08/2006 3:10 a 54.6 54.6 54.6 54.9 54.3 87 50.8 0.0 0.0 --- 0.00 29.428
04/08/2006 3:20 a 54.0 54.0 54.0 54.3 53.6 88 50.5 0.0 0.0 --- 0.00 29.443
04/08/2006 3:30 a 53.4 53.4 53.4 53.6 53.2 89 50.2 0.0 0.0 --- 0.00 29.447
04/08/2006 3:40 a 53.0 53.0 53.0 53.2 52.9 91 50.4 0.0 1.0 SE 0.00 29.460
04/08/2006 3:50 a 53.0 53.0 53.0 53.1 52.9 93 51.0 0.0 0.0 --- 0.00 29.465
04/08/2006 4:00 a 53.5 53.5 53.5 53.8 53.1 93 51.5 0.0 1.0 SE 0.00 29.480
04/08/2006 4:10 a 54.2 54.2 54.2 54.5 53.8 91 51.6 0.0 1.0 SE 0.00 29.481
04/08/2006 4:20 a 54.7 54.7 54.7 55.2 54.5 90 51.8 0.0 2.0 SE 0.00 29.481
04/08/2006 4:30 a 55.6 55.6 55.6 55.9 55.2 87 51.8 0.0 2.0 SE 0.00 29.493
04/08/2006 4:40 a 56.1 56.1 56.1 56.2 55.9 85 51.7 0.0 1.0 SE 0.00 29.501
04/08/2006 4:50 a 56.3 56.3 56.3 56.3 56.2 83 51.2 0.0 2.0 SE 0.00 29.505
04/08/2006 5:00 a 56.2 56.2 56.2 56.2 56.1 81 50.5 1.0 3.0 SE 0.00 29.508
04/08/2006 5:10 a 56.0 56.0 56.0 56.1 55.9 79 49.6 1.0 3.0 SE 0.00 29.500
04/08/2006 5:20 a 55.8 55.8 55.8 56.0 55.7 78 49.1 1.0 4.0 ESE 0.00 29.511
04/08/2006 5:30 a 55.7 55.7 55.7 55.8 55.6 77 48.6 0.0 1.0 ESE 0.00 29.520
04/08/2006 5:40 a 55.5 55.5 55.5 55.6 55.4 76 48.1 0.0 4.0 ESE 0.00 29.530
04/08/2006 5:50 a 55.3 55.3 55.3 55.4 55.0 78 48.6 1.0 4.0 ESE 0.01 29.528
04/08/2006 6:00 a 54.2 54.2 54.2 55.0 53.5 77 47.2 2.0 6.0 S 0.00 29.520
04/08/2006 6:10 a 53.0 53.0 53.0 53.5 52.7 79 46.7 1.0 6.0 E 0.00 29.522
04/08/2006 6:20 a 52.5 52.5 52.5 52.7 52.3 81 46.8 0.0 2.0 E 0.01 29.520
04/08/2006 6:30 a 52.1 52.1 52.1 52.3 52.1 80 46.1 1.0 4.0 SSE 0.00 29.530
04/08/2006 6:40 a 52.1 52.1 52.1 52.1 52.0 79 45.8 1.0 4.0 SSW 0.00 29.530
04/08/2006 6:50 a 51.8 51.8 51.8 52.0 51.7 79 45.5 1.0 4.0 SSW 0.00 29.539
04/08/2006 7:00 a 51.5 51.5 51.5 51.7 51.3 76 44.2 2.0 6.0 SSE 0.00 29.545
04/08/2006 7:10 a 51.1 51.1 51.1 51.3 50.9 76 43.8 2.0 8.0 SSE 0.00 29.553
04/08/2006 7:20 a 50.8 50.8 50.8 50.9 50.7 74 42.8 1.0 5.0 SE 0.00 29.560
04/08/2006 7:30 a 50.6 50.6 50.6 50.7 50.4 75 43.0 2.0 5.0 SSE 0.00 29.566
04/08/2006 7:40 a 50.3 50.3 50.3 50.5 50.0 74 42.3 2.0 5.0 S 0.00 29.570
04/08/2006 7:50 a 49.7 49.7 49.7 50.0 49.3 76 42.5 2.0 8.0 S 0.00 29.577
04/08/2006 8:00 a 48.9 48.9 48.9 49.3 48.5 80 43.0 2.0 4.0 SE 0.00 29.578
04/08/2006 8:10 a 48.2 48.2 48.2 48.5 47.9 82 43.0 2.0 5.0 SSW 0.01 29.586
04/08/2006 8:20 a 47.7 47.7 47.7 47.9 47.5 83 42.8 1.0 3.0 ESE 0.00 29.583
04/08/2006 8:30 a 47.4 47.4 47.4 47.5 47.2 83 42.5 1.0 3.0 S 0.00 29.581
04/08/2006 8:40 a 47.1 47.1 47.1 47.2 47.0 84 42.5 1.0 4.0 ESE 0.01 29.587
04/08/2006 8:50 a 46.9 46.9 46.9 47.0 46.9 85 42.6 1.0 5.0 E 0.00 29.591
04/08/2006 9:00 a 46.8 46.8 46.8 46.9 46.7 86 42.8 1.0 3.0 ESE 0.00 29.595
04/08/2006 9:10 a 46.4 46.4 46.4 46.6 46.2 87 42.7 1.0 4.0 SE 0.02 29.597
04/08/2006 9:20 a 46.0 46.0 46.0 46.2 45.9 88 42.7 0.0 2.0 SSE 0.01 29.604
04/08/2006 9:30 a 45.8 45.8 45.8 45.9 45.6 90 43.0 1.0 3.0 S 0.01 29.615
04/08/2006 9:40 a 45.6 45.6 45.6 45.7 45.4 90 42.8 1.0 4.0 S 0.02 29.626
04/08/2006 9:50 a 45.4 45.4 45.4 45.5 45.3 91 42.9 1.0 3.0 S 0.02 29.622
04/08/2006 10:00 a 45.2 45.2 45.2 45.3 45.1 91 42.7 1.0 5.0 SSE 0.02 29.622
04/08/2006 10:10 a 45.1 45.1 45.1 45.1 45.0 92 42.9 1.0 3.0 S 0.01 29.634
04/08/2006 10:20 a 44.9 44.9 44.9 45.0 44.8 91 42.4 1.0 4.0 ESE 0.01 29.641
04/08/2006 10:30 a 44.7 44.7 44.7 44.8 44.4 90 42.0 2.0 4.0 SE 0.03 29.643
04/08/2006 10:40 a 44.2 44.2 44.2 44.4 44.0 90 41.5 2.0 5.0 S 0.02 29.644
04/08/2006 10:50 a 43.8 43.8 43.8 44.0 43.7 91 41.3 2.0 6.0 SSW 0.01 29.649
04/08/2006 11:00 a 43.6 43.6 43.6 43.7 43.4 90 40.9 2.0 5.0 S 0.02 29.650
04/08/2006 11:10 a 43.3 43.3 43.3 43.4 43.1 90 40.6 2.0 5.0 S 0.01 29.655
04/08/2006 11:20 a 43.1 43.1 43.1 43.1 43.0 91 40.7 2.0 5.0 SSE 0.02 29.661
04/08/2006 11:30 a 42.8 42.8 42.8 43.1 42.6 91 40.4 2.0 5.0 SSE 0.02 29.660
04/08/2006 11:40 a 42.4 42.4 42.4 42.6 42.3 92 40.2 1.0 4.0 SSE 0.01 29.663
04/08/2006 11:50 a 42.2 42.2 42.2 42.3 42.1 92 40.0 2.0 7.0 SSE 0.02 29.661
04/08/2006 12:00 p 41.9 41.9 41.9 42.1 41.8 92 39.8 2.0 5.0 ESE 0.01 29.665
04/08/2006 12:10 p 41.7 41.7 41.7 41.8 41.7 92 39.6 1.0 7.0 SSE 0.01 29.676
04/08/2006 12:20 p 41.7 41.7 41.7 41.7 41.6 92 39.6 1.0 4.0 ESE 0.02 29.689
04/08/2006 12:30 p 41.6 41.6 41.6 41.6 41.5 93 39.7 1.0 4.0 SSE 0.02 29.686
04/08/2006 12:40 p 41.5 41.5 41.5 41.5 41.4 94 39.9 1.0 4.0 ESE 0.02 29.699
04/08/2006 12:50 p 41.3 41.3 41.3 41.5 41.1 92 39.2 1.0 5.0 SE 0.01 29.698
04/08/2006 1:00 p 41.0 41.0 41.0 41.2 40.9 92 38.9 1.0 4.0 SSE 0.02 29.698
04/08/2006 1:10 p 40.9 40.9 40.9 40.9 40.9 92 38.8 1.0 6.0 E 0.03 29.700
04/08/2006 1:20 p 40.6 40.6 40.6 40.9 40.2 90 37.9 2.0 5.0 S 0.01 29.706
04/08/2006 1:30 p 40.1 40.1 40.1 40.2 39.9 91 37.7 1.0 6.0 SSE 0.02 29.709
04/08/2006 1:40 p 39.7 39.7 39.7 39.9 39.5 92 37.6 1.0 5.0 SSW 0.02 29.713
04/08/2006 1:50 p 39.5 39.5 39.5 39.5 39.5 92 37.4 1.0 4.0 SSW 0.02 29.711
04/08/2006 2:00 p 39.2 39.2 39.2 39.5 39.1 91 36.8 2.0 4.0 S 0.01 29.716
04/08/2006 2:10 p 38.9 38.9 38.9 39.1 38.8 91 36.5 2.0 5.0 S 0.02 29.725
04/08/2006 2:20 p 38.7 38.7 38.7 38.8 38.7 92 36.6 1.0 3.0 S 0.03 29.734
04/08/2006 2:30 p 38.7 38.7 38.7 38.7 38.5 91 36.3 1.0 3.0 SSE 0.01 29.740
04/08/2006 2:40 p 38.4 38.4 38.4 38.5 38.2 92 36.3 0.0 6.0 SW 0.02 29.739
04/08/2006 2:50 p 38.1 38.1 38.1 38.3 37.9 90 35.4 0.0 2.0 SW 0.01 29.742
04/08/2006 3:00 p 37.6 37.6 37.6 37.9 37.4 90 34.9 0.0 2.0 S 0.01 29.741
04/08/2006 3:10 p 37.3 37.3 37.3 37.4 37.2 90 34.6 1.0 3.0 S 0.01 29.755
04/08/2006 3:20 p 37.1 37.1 37.1 37.2 37.0 90 34.4 1.0 2.0 SSW 0.01 29.752
04/08/2006 3:30 p 37.0 37.0 37.0 37.1 36.9 90 34.3 1.0 4.0 SSW 0.01 29.750
04/08/2006 3:40 p 36.9 36.9 36.9 36.9 36.8 89 34.0 1.0 4.0 SSE 0.00 29.742
04/08/2006 3:50 p 36.9 36.9 36.9 37.0 36.8 89 34.0 0.0 3.0 SSE 0.01 29.744
04/08/2006 4:00 p 37.0 37.0 37.0 37.1 36.9 88 33.8 0.0 2.0 SSE 0.00 29.749
04/08/2006 4:10 p 37.1 37.1 37.1 37.1 37.0 88 33.9 0.0 2.0 SSE 0.01 29.751
04/08/2006 4:20 p 37.2 37.2 37.2 37.4 37.1 89 34.3 0.0 2.0 SSE 0.00 29.759
04/08/2006 4:30 p 37.5 37.5 37.5 37.6 37.4 88 34.3 0.0 2.0 SSE 0.00 29.758
04/08/2006 4:40 p 37.7 37.7 37.7 37.8 37.6 88 34.5 0.0 0.0 --- 0.00 29.761
04/08/2006 4:50 p 38.0 38.0 38.0 38.1 37.8 88 34.8 0.0 2.0 SSE 0.01 29.763
04/08/2006 5:00 p 38.2 38.2 38.2 38.3 38.1 86 34.4 0.0 2.0 SSE 0.00 29.768
04/08/2006 5:10 p 38.4 38.4 38.4 38.5 38.3 86 34.6 0.0 5.0 E 0.00 29.778
04/08/2006 5:20 p 38.6 38.6 38.6 38.8 38.5 86 34.8 0.0 2.0 E 0.00 29.780
04/08/2006 5:30 p 38.9 38.9 38.9 39.1 38.7 88 35.7 0.0 3.0 E 0.00 29.788
04/08/2006 5:40 p 39.2 39.2 39.2 39.3 39.1 88 36.0 0.0 2.0 E 0.01 29.796
04/08/2006 5:50 p 39.4 39.4 39.4 39.5 39.2 88 36.1 0.0 3.0 E 0.00 29.806
04/08/2006 6:00 p 39.7 39.7 39.7 39.8 39.5 89 36.7 0.0 2.0 E 0.00 29.808
04/08/2006 6:10 p 39.9 39.9 39.9 40.1 39.8 86 36.1 0.0 3.0 E 0.00 29.804
04/08/2006 6:20 p 40.2 40.2 40.2 40.3 40.1 86 36.4 0.0 2.0 E 0.00 29.803
04/08/2006 6:30 p 40.4 40.4 40.4 40.5 40.3 85 36.3 0.0 2.0 E 0.00 29.805
04/08/2006 6:40 p 40.5 40.5 40.5 40.6 40.4 88 37.2 0.0 2.0 E 0.00 29.805
04/08/2006 6:50 p 40.6 40.6 40.6 40.6 40.6 87 37.0 0.0 0.0 --- 0.00 29.809
04/08/2006 7:00 p 40.6 40.6 40.6 40.7 40.6 88 37.3 0.0 0.0 --- 0.00 29.807
04/08/2006 7:10 p 40.6 40.6 40.6 40.6 40.5 89 37.6 0.0 0.0 --- 0.00 29.808
04/08/2006 7:20 p 40.5 40.5 40.5 40.5 40.4 90 37.8 0.0 0.0 --- 0.00 29.806
04/08/2006 7:30 p 40.3 40.3 40.3 40.5 40.2 89 37.3 0.0 0.0 --- 0.00 29.815
04/08/2006 7:40 p 40.1 40.1 40.1 40.3 39.9 91 37.7 0.0 0.0 --- 0.00 29.821
04/08/2006 7:50 p 39.8 39.8 39.8 39.9 39.7 91 37.4 0.0 0.0 --- 0.00 29.819
04/08/2006 8:00 p 39.7 39.7 39.7 39.8 39.7 91 37.3 0.0 0.0 --- 0.00 29.821
04/08/2006 8:10 p 39.7 39.7 39.7 39.8 39.6 87 36.2 0.0 1.0 --- 0.00 29.831
04/08/2006 8:20 p 39.9 39.9 39.9 40.0 39.8 87 36.4 0.0 0.0 --- 0.00 29.839
04/08/2006 8:30 p 40.0 40.0 40.0 40.2 40.0 89 37.0 0.0 0.0 --- 0.01 29.848
04/08/2006 8:40 p 40.2 40.2 40.2 40.3 40.2 86 36.4 0.0 0.0 --- 0.00 29.848
04/08/2006 8:50 p 40.3 40.3 40.3 40.3 40.2 84 35.9 0.0 0.0 --- 0.00 29.848
04/08/2006 9:00 p 40.2 40.2 40.2 40.3 40.1 84 35.8 0.0 0.0 --- 0.00 29.854
04/08/2006 9:10 p 40.1 40.1 40.1 40.2 40.1 85 36.0 0.0 0.0 --- 0.00 29.859
04/08/2006 9:20 p 39.8 39.8 39.8 40.1 39.5 84 35.4 0.0 0.0 --- 0.00 29.861
04/08/2006 9:30 p 39.1 39.1 39.1 39.5 38.8 85 35.0 0.0 0.0 --- 0.00 29.867
04/08/2006 9:40 p 38.6 38.6 38.6 38.8 38.3 86 34.8 0.0 0.0 --- 0.00 29.871
04/08/2006 9:50 p 38.0 38.0 38.0 38.3 37.7 87 34.5 0.0 0.0 --- 0.00 29.880
04/08/2006 10:00 p 37.5 37.5 37.5 37.7 37.3 87 34.0 0.0 0.0 --- 0.00 29.889
04/08/2006 10:10 p 37.2 37.2 37.2 37.4 37.1 88 34.0 0.0 0.0 --- 0.00 29.886
04/08/2006 10:20 p 37.0 37.0 37.0 37.1 36.9 88 33.8 0.0 0.0 --- 0.00 29.881
04/08/2006 10:30 p 36.7 36.7 36.7 36.9 36.4 87 33.2 0.0 0.0 --- 0.00 29.883
04/08/2006 10:40 p 36.3 36.3 36.3 36.4 36.1 88 33.1 0.0 0.0 --- 0.00 29.890
04/08/2006 10:50 p 36.0 36.0 36.0 36.2 35.9 87 32.5 0.0 0.0 --- 0.00 29.886
04/08/2006 11:00 p 35.9 35.9 35.9 35.9 35.8 86 32.1 0.0 0.0 --- 0.00 29.885
04/08/2006 11:10 p 35.8 35.8 35.8 35.8 35.8 87 32.3 0.0 0.0 --- 0.00 29.871
04/08/2006 11:20 p 35.9 35.9 35.9 35.9 35.8 89 33.0 0.0 0.0 --- 0.00 29.892
04/08/2006 11:30 p 35.8 35.8 35.8 35.9 35.7 89 32.9 0.0 0.0 --- 0.00 29.890
04/08/2006 11:40 p 35.6 35.6 35.6 35.7 35.5 86 31.8 0.0 0.0 --- 0.00 29.887
04/08/2006 11:50 p 35.5 35.5 35.5 35.5 35.4 89 32.6 0.0 0.0 --- 0.00 29.883
04/09/2006 12:00 a 35.3 35.3 35.3 35.4 35.2 89 32.4 0.0 0.0 --- 0.00 29.881
04/09/2006 12:10 a 35.1 35.1 35.1 35.2 35.1 89 32.2 0.0 0.0 --- 0.00 29.891
04/09/2006 12:20 a 35.1 35.1 35.1 35.2 35.0 90 32.5 0.0 0.0 --- 0.00 29.904
04/09/2006 12:30 a 35.1 35.1 35.1 35.2 35.0 89 32.2 0.0 0.0 --- 0.00 29.902
04/09/2006 12:40 a 35.0 35.0 35.0 35.1 35.0 88 31.8 0.0 0.0 --- 0.00 29.905
04/09/2006 12:50 a 35.0 35.0 35.0 35.0 34.9 87 31.5 0.0 0.0 --- 0.00 29.909
04/09/2006 1:00 a 35.1 35.1 35.1 35.2 35.0 88 31.9 0.0 0.0 --- 0.00 29.913
04/09/2006 1:10 a 35.4 35.4 35.4 35.5 35.2 89 32.5 0.0 0.0 --- 0.00 29.918
04/09/2006 1:20 a 35.5 35.5 35.5 35.6 35.4 86 31.7 0.0 0.0 --- 0.00 29.908
04/09/2006 1:30 a 35.7 35.7 35.7 35.8 35.6 83 31.1 0.0 0.0 --- 0.00 29.910
04/09/2006 1:40 a 35.9 35.9 35.9 36.0 35.8 87 32.4 0.0 0.0 --- 0.00 29.914
04/09/2006 1:50 a 35.9 35.9 35.9 36.0 35.9 87 32.4 0.0 0.0 --- 0.00 29.912
04/09/2006 2:00 a 35.8 35.8 35.8 35.9 35.7 85 31.7 0.0 0.0 --- 0.00 29.910
04/09/2006 2:10 a 35.6 35.6 35.6 35.7 35.6 82 30.7 0.0 0.0 --- 0.00 29.908
04/09/2006 2:20 a 35.6 35.6 35.6 35.7 35.6 75 28.5 0.0 2.0 E 0.00 29.912
04/09/2006 2:30 a 36.0 36.0 36.0 36.2 35.8 79 30.1 0.0 0.0 --- 0.00 29.914
04/09/2006 2:40 a 36.1 36.1 36.1 36.2 36.0 78 29.9 0.0 1.0 E 0.00 29.925
04/09/2006 2:50 a 35.9 35.9 35.9 36.0 35.7 78 29.7 0.0 2.0 E 0.00 29.938
04/09/2006 3:00 a 35.7 35.7 35.7 35.7 35.6 78 29.5 0.0 0.0 --- 0.00 29.929
04/09/2006 3:10 a 35.7 35.7 35.7 35.9 35.6 73 27.9 0.0 1.0 E 0.00 29.928
04/09/2006 3:20 a 36.1 36.1 36.1 36.4 35.8 72 28.0 0.0 1.0 E 0.00 29.942
04/09/2006 3:30 a 36.4 36.4 36.4 36.4 36.3 69 27.2 0.0 2.0 E 0.00 29.932
04/09/2006 3:40 a 36.5 36.5 36.5 36.5 36.4 67 26.6 0.0 4.0 E 0.00 29.926
04/09/2006 3:50 a 36.6 36.6 36.6 36.7 36.5 65 26.0 1.0 3.0 E 0.00 29.923
04/09/2006 4:00 a 36.7 36.7 36.7 36.7 36.6 66 26.4 0.0 2.0 SSW 0.00 29.921
04/09/2006 4:10 a 36.6 36.6 36.6 36.7 36.5 65 26.0 0.0 2.0 SSW 0.00 29.921
04/09/2006 4:20 a 36.5 36.5 36.5 36.5 36.4 66 26.2 0.0 2.0 SSW 0.00 29.923
04/09/2006 4:30 a 36.3 36.3 36.3 36.4 36.2 68 26.8 0.0 1.0 SSW 0.00 29.928
04/09/2006 4:40 a 36.1 36.1 36.1 36.2 36.1 67 26.2 0.0 2.0 SSW 0.00 29.925
04/09/2006 4:50 a 36.0 36.0 36.0 36.1 35.9 67 26.1 0.0 1.0 SSW 0.00 29.929
04/09/2006 5:00 a 35.8 35.8 35.8 35.9 35.8 67 25.9 0.0 2.0 SSW 0.00 29.929
04/09/2006 5:10 a 35.8 35.8 35.8 35.8 35.7 67 25.9 0.0 2.0 SSW 0.00 29.925
04/09/2006 5:20 a 35.7 35.7 35.7 35.8 35.6 66 25.5 0.0 1.0 SSW 0.00 29.931
04/09/2006 5:30 a 35.5 35.5 35.5 35.6 35.4 66 25.3 0.0 2.0 SSW 0.00 29.937
04/09/2006 5:40 a 35.3 35.3 35.3 35.4 35.2 68 25.8 0.0 0.0 --- 0.00 29.947
04/09/2006 5:50 a 35.1 35.1 35.1 35.2 35.0 68 25.6 0.0 0.0 --- 0.00 29.950
04/09/2006 6:00 a 34.9 34.9 34.9 35.0 34.7 69 25.8 0.0 0.0 --- 0.00 29.950
04/09/2006 6:10 a 34.7 34.7 34.7 34.8 34.6 69 25.6 0.0 0.0 --- 0.00 29.959
04/09/2006 6:20 a 34.5 34.5 34.5 34.6 34.5 70 25.7 0.0 0.0 --- 0.00 29.958
04/09/2006 6:30 a 34.4 34.4 34.4 34.5 34.3 69 25.3 0.0 0.0 --- 0.00 29.962
04/09/2006 6:40 a 34.3 34.3 34.3 34.3 34.3 69 25.2 0.0 1.0 SSW 0.00 29.966
04/09/2006 6:50 a 34.3 34.3 34.3 34.4 34.3 68 24.9 0.0 1.0 --- 0.00 29.970
04/09/2006 7:00 a 34.4 34.4 34.4 34.5 34.3 69 25.3 0.0 0.0 --- 0.00 29.978
04/09/2006 7:10 a 34.5 34.5 34.5 34.7 34.4 67 24.7 0.0 3.0 SSW 0.00 29.981
04/09/2006 7:20 a 34.8 34.8 34.8 34.9 34.7 67 25.0 0.0 1.0 S 0.00 29.983
04/09/2006 7:30 a 35.1 35.1 35.1 35.2 34.9 67 25.3 0.0 3.0 S 0.00 29.986
04/09/2006 7:40 a 35.3 35.3 35.3 35.5 35.2 65 24.7 0.0 2.0 S 0.00 29.988
04/09/2006 7:50 a 35.6 35.6 35.6 35.8 35.4 64 24.6 1.0 4.0 S 0.00 29.997
04/09/2006 8:00 a 35.9 35.9 35.9 36.1 35.7 64 24.9 1.0 3.0 S 0.00 30.001
04/09/2006 8:10 a 36.2 36.2 36.2 36.4 36.0 62 24.4 1.0 4.0 S 0.00 30.000
04/09/2006 8:20 a 36.6 36.6 36.6 36.9 36.4 60 24.0 1.0 5.0 S 0.00 29.998
04/09/2006 8:30 a 37.3 37.3 37.3 37.8 36.9 59 24.3 1.0 4.0 SSW 0.00 29.998
04/09/2006 8:40 a 38.2 38.2 38.2 38.6 37.8 57 24.3 2.0 7.0 S 0.00 30.000
04/09/2006 8:50 a 38.9 38.9 38.9 39.2 38.6 54 23.7 2.0 6.0 S 0.00 30.003
04/09/2006 9:00 a 39.6 39.6 39.6 40.0 39.2 54 24.3 2.0 6.0 SSW 0.00 30.011
04/09/2006 9:10 a 40.3 40.3 40.3 40.6 40.1 54 25.0 2.0 5.0 S 0.00 30.008
04/09/2006 9:20 a 40.9 40.9 40.9 41.1 40.6 51 24.2 2.0 7.0 S 0.00 30.011
04/09/2006 9:30 a 41.2 41.2 41.2 41.5 41.0 51 24.5 2.0 5.0 S 0.00 30.008
04/09/2006 9:40 a 42.0 42.0 42.0 42.6 41.5 50 24.7 1.0 5.0 S 0.00 30.011
04/09/2006 9:50 a 43.1 43.1 43.1 43.8 42.6 50 25.7 1.0 4.0 S 0.00 30.009
04/09/2006 10:00 a 44.3 44.3 44.3 44.6 43.8 45 24.3 1.0 5.0 SSE 0.00 30.011
04/09/2006 10:10 a 44.3 44.3 44.3 44.5 44.2 45 24.3 2.0 5.0 S 0.00 30.010
04/09/2006 10:20 a 44.6 44.6 44.6 45.1 44.3 45 24.6 1.0 5.0 S 0.00 30.010
04/09/2006 10:30 a 45.3 45.3 45.3 45.5 45.1 45 25.2 1.0 6.0 SSE 0.00 30.008
04/09/2006 10:40 a 45.7 45.7 45.7 45.8 45.5 43 24.5 2.0 4.0 SSW 0.00 30.010
04/09/2006 10:50 a 45.8 45.8 45.8 46.0 45.8 43 24.6 3.0 9.0 ESE 0.00 30.006
04/09/2006 11:00 a 46.2 46.2 46.2 46.5 46.0 47 27.1 2.0 7.0 SSW 0.00 30.005
04/09/2006 11:10 a 46.8 46.8 46.8 47.0 46.4 40 23.8 3.0 7.0 S 0.00 30.008
04/09/2006 11:20 a 47.4 47.4 47.4 47.8 47.1 39 23.7 2.0 6.0 ESE 0.00 30.002
04/09/2006 11:30 a 47.8 47.8 47.8 47.9 47.7 39 24.1 2.0 8.0 SE 0.00 30.001
04/09/2006 11:40 a 48.0 48.0 48.0 48.1 47.9 41 25.4 2.0 8.0 S 0.00 30.002
04/09/2006 11:50 a 48.2 48.2 48.2 48.3 48.1 37 23.2 2.0 9.0 SE 0.00 30.001
04/09/2006 12:00 p 48.4 48.4 48.4 48.6 48.3 38 24.0 3.0 8.0 ESE 0.00 30.001
04/09/2006 12:10 p 48.9 48.9 48.9 49.2 48.6 40 25.7 2.0 7.0 SSE 0.00 29.998
04/09/2006 12:20 p 49.4 49.4 49.4 49.6 49.2 37 24.2 2.0 5.0 SE 0.00 29.999
04/09/2006 12:30 p 49.8 49.8 49.8 50.1 49.6 35 23.3 2.0 6.0 SSW 0.00 29.998
04/09/2006 12:40 p 50.2 50.2 50.2 50.3 50.1 37 24.9 2.0 7.0 ESE 0.00 29.997
04/09/2006 12:50 p 50.6 50.6 50.6 51.0 50.3 35 24.0 2.0 7.0 SSW 0.00 29.991
04/09/2006 1:00 p 51.5 51.5 51.5 52.0 51.0 34 24.1 1.0 8.0 SSW 0.00 29.988
04/09/2006 1:10 p 52.1 52.1 52.1 52.3 52.0 35 25.3 2.0 6.0 E 0.00 29.986
04/09/2006 1:20 p 52.5 52.5 52.5 52.6 52.3 33 24.2 2.0 7.0 ESE 0.00 29.986
04/09/2006 1:30 p 53.3 53.3 53.3 53.9 52.7 34 25.7 1.0 4.0 SE 0.00 29.984
04/09/2006 1:40 p 54.1 54.1 54.1 54.1 53.9 35 27.1 1.0 5.0 W 0.00 29.977
04/09/2006 1:50 p 54.2 54.2 54.2 54.2 54.1 34 26.5 1.0 5.0 S 0.00 29.976
04/09/2006 2:00 p 54.1 54.1 54.1 54.2 54.0 33 25.7 1.0 4.0 S 0.00 29.972
04/09/2006 2:10 p 54.2 54.2 54.2 54.5 53.9 31 24.2 2.0 10.0 SSW 0.00 29.968
04/09/2006 2:20 p 54.4 54.4 54.4 54.5 54.3 33 25.9 2.0 6.0 ESE 0.00 29.962
04/09/2006 2:30 p 54.5 54.5 54.5 54.8 54.3 29 22.9 2.0 7.0 E 0.00 29.956
04/09/2006 2:40 p 54.5 54.5 54.5 54.7 54.4 32 25.3 2.0 5.0 SSE 0.00 29.954
04/09/2006 2:50 p 54.9 54.9 54.9 55.2 54.6 29 23.3 2.0 9.0 ESE 0.00 29.949
04/09/2006 3:00 p 55.3 55.3 55.3 55.4 55.2 27 21.9 2.0 7.0 ESE 0.00 29.947
04/09/2006 3:10 p 55.4 55.4 55.4 55.7 55.3 27 22.0 2.0 7.0 E 0.00 29.947
04/09/2006 3:20 p 55.7 55.7 55.7 55.8 55.6 27 22.3 3.0 9.0 E 0.00 29.942
04/09/2006 3:30 p 56.0 56.0 56.0 56.1 55.8 27 22.5 2.0 6.0 SSE 0.00 29.941
04/09/2006 3:40 p 56.0 56.0 56.0 56.2 56.0 27 22.5 2.0 6.0 SSW 0.00 29.943
04/09/2006 3:50 p 56.3 56.3 56.3 56.4 56.2 27 22.8 2.0 6.0 S 0.00 29.941
04/09/2006 4:00 p 56.4 56.4 56.4 56.5 56.3 27 22.9 1.0 4.0 SE 0.00 29.942
04/09/2006 4:10 p 56.5 56.5 56.5 56.9 56.3 27 22.9 1.0 5.0 S 0.00 29.939
04/09/2006 4:20 p 56.9 56.9 56.9 57.1 56.9 27 23.3 1.0 4.0 E 0.00 29.941
04/09/2006 4:30 p 57.1 57.1 57.1 57.2 57.0 25 21.6 1.0 4.0 SSW 0.00 29.938
04/09/2006 4:40 p 57.2 57.2 57.2 57.3 57.2 27 23.5 2.0 6.0 E 0.00 29.940
04/09/2006 4:50 p 57.4 57.4 57.4 57.5 57.3 24 20.9 1.0 2.0 SE 0.00 29.939
04/09/2006 5:00 p 57.3 57.3 57.3 57.4 57.3 24 20.8 1.0 4.0 SSE 0.00 29.940
04/09/2006 5:10 p 57.2 57.2 57.2 57.4 57.2 27 23.5 1.0 5.0 E 0.00 29.941
04/09/2006 5:20 p 57.1 57.1 57.1 57.2 57.0 25 21.6 2.0 9.0 ESE 0.00 29.940
04/09/2006 5:30 p 57.2 57.2 57.2 57.3 57.1 27 23.5 1.0 5.0 S 0.00 29.938
04/09/2006 5:40 p 57.2 57.2 57.2 57.3 57.2 27 23.5 1.0 6.0 E 0.00 29.940
04/09/2006 5:50 p 57.3 57.3 57.3 57.3 57.2 25 21.8 1.0 3.0 S 0.00 29.942
04/09/2006 6:00 p 57.3 57.3 57.3 57.3 57.2 25 21.8 2.0 7.0 E 0.00 29.945
04/09/2006 6:10 p 57.1 57.1 57.1 57.2 57.0 25 21.6 0.0 4.0 S 0.00 29.945
04/09/2006 6:20 p 56.9 56.9 56.9 57.0 56.9 26 22.4 0.0 3.0 ENE 0.00 29.942
04/09/2006 6:30 p 56.9 56.9 56.9 56.9 56.8 24 20.5 2.0 5.0 E 0.00 29.950
04/09/2006 6:40 p 56.8 56.8 56.8 56.8 56.8 25 21.4 1.0 5.0 E 0.00 29.949
04/09/2006 6:50 p 56.7 56.7 56.7 56.8 56.7 25 21.3 2.0 8.0 E 0.00 29.948
04/09/2006 7:00 p 56.6 56.6 56.6 56.7 56.5 24 20.2 1.0 4.0 ESE 0.00 29.953
04/09/2006 7:10 p 56.2 56.2 56.2 56.5 55.9 25 20.9 0.0 4.0 SE 0.00 29.955
04/09/2006 7:20 p 55.7 55.7 55.7 55.9 55.5 25 20.4 1.0 6.0 ESE 0.00 29.959
04/09/2006 7:30 p 55.3 55.3 55.3 55.6 55.1 26 21.0 0.0 3.0 ESE 0.00 29.963
04/09/2006 7:40 p 54.7 54.7 54.7 55.1 54.4 27 21.4 0.0 1.0 ESE 0.00 29.966
04/09/2006 7:50 p 54.0 54.0 54.0 54.3 53.6 29 22.5 0.0 1.0 ESE 0.00 29.971
04/09/2006 8:00 p 53.0 53.0 53.0 53.6 52.5 29 21.6 0.0 0.0 --- 0.00 29.975
04/09/2006 8:10 p 51.9 51.9 51.9 52.5 51.3 29 20.7 0.0 0.0 --- 0.00 29.981
04/09/2006 8:20 p 50.9 50.9 50.9 51.3 50.5 33 22.8 0.0 0.0 --- 0.00 29.982
04/09/2006 8:30 p 50.1 50.1 50.1 50.5 49.9 33 22.1 0.0 3.0 ESE 0.00 29.990
04/09/2006 8:40 p 50.1 50.1 50.1 50.1 50.0 33 22.1 0.0 2.0 ESE 0.00 29.993
04/09/2006 8:50 p 50.0 50.0 50.0 50.1 49.9 33 22.0 0.0 2.0 ESE 0.00 29.998
04/09/2006 9:00 p 49.8 49.8 49.8 49.9 49.7 33 21.9 0.0 0.0 --- 0.00 29.997
04/09/2006 9:10 p 49.8 49.8 49.8 49.9 49.5 36 23.9 0.0 0.0 --- 0.00 29.999
04/09/2006 9:20 p 49.4 49.4 49.4 49.5 49.3 38 24.9 0.0 2.0 ESE 0.00 30.005
04/09/2006 9:30 p 48.9 48.9 48.9 49.3 48.7 35 22.5 0.0 0.0 --- 0.00 30.007
04/09/2006 9:40 p 48.9 48.9 48.9 49.1 48.7 35 22.5 0.0 1.0 ESE 0.00 30.007
04/09/2006 9:50 p 49.3 49.3 49.3 49.4 49.1 35 22.8 0.0 2.0 ESE 0.00 30.010
04/09/2006 10:00 p 49.1 49.1 49.1 49.3 49.0 35 22.6 0.0 1.0 ESE 0.00 30.015
04/09/2006 10:10 p 49.1 49.1 49.1 49.3 49.0 34 22.0 1.0 4.0 ESE 0.00 30.009
04/09/2006 10:20 p 49.3 49.3 49.3 49.4 49.3 35 22.8 1.0 5.0 E 0.00 30.012
04/09/2006 10:30 p 49.7 49.7 49.7 49.9 49.4 35 23.2 1.0 6.0 E 0.00 30.014
04/09/2006 10:40 p 49.7 49.7 49.7 49.9 49.5 36 23.8 1.0 4.0 E 0.00 30.020
04/09/2006 10:50 p 49.4 49.4 49.4 49.5 49.3 37 24.2 0.0 2.0 E 0.00 30.018
04/09/2006 11:00 p 49.2 49.2 49.2 49.3 49.0 37 24.1 0.0 2.0 E 0.00 30.020
04/09/2006 11:10 p 48.9 48.9 48.9 49.0 48.8 38 24.4 0.0 3.0 E 0.00 30.026
04/09/2006 11:20 p 48.7 48.7 48.7 48.8 48.6 39 24.9 0.0 3.0 E 0.00 30.028
04/09/2006 11:30 p 48.5 48.5 48.5 48.6 48.3 39 24.7 1.0 3.0 E 0.00 30.031
04/09/2006 11:40 p 48.3 48.3 48.3 48.3 48.2 39 24.5 2.0 6.0 E 0.00 30.033
04/09/2006 11:50 p 48.2 48.2 48.2 48.3 48.1 40 25.0 2.0 4.0 E 0.00 30.038
04/10/2006 12:00 a 48.0 48.0 48.0 48.1 47.8 41 25.4 1.0 2.0 ESE 0.00 30.040
04/10/2006 12:10 a 47.7 47.7 47.7 47.8 47.5 42 25.7 0.0 2.0 ESE 0.00 30.042
04/10/2006 12:20 a 47.3 47.3 47.3 47.5 47.2 43 26.0 1.0 3.0 ESE 0.00 30.044
04/10/2006 12:30 a 47.1 47.1 47.1 47.2 47.0 44 26.3 1.0 2.0 ESE 0.00 30.042
04/10/2006 12:40 a 47.0 47.0 47.0 47.0 47.0 44 26.2 1.0 3.0 SE 0.00 30.044
04/10/2006 12:50 a 46.9 46.9 46.9 47.0 46.8 44 26.1 0.0 3.0 SE 0.00 30.050
04/10/2006 1:00 a 46.7 46.7 46.7 46.8 46.5 45 26.5 0.0 3.0 SE 0.00 30.054
04/10/2006 1:10 a 46.2 46.2 46.2 46.5 45.9 47 27.1 0.0 2.0 SE 0.00 30.054
04/10/2006 1:20 a 45.8 45.8 45.8 45.9 45.8 46 26.2 1.0 4.0 SE 0.00 30.055
04/10/2006 1:30 a 45.9 45.9 45.9 45.9 45.8 46 26.3 1.0 3.0 SE 0.00 30.056
04/10/2006 1:40 a 45.8 45.8 45.8 45.9 45.6 46 26.2 1.0 3.0 ESE 0.00 30.058
04/10/2006 1:50 a 45.5 45.5 45.5 45.6 45.4 47 26.5 1.0 4.0 SE 0.00 30.056
04/10/2006 2:00 a 45.4 45.4 45.4 45.5 45.3 46 25.8 2.0 5.0 ESE 0.00 30.053
04/10/2006 2:10 a 45.3 45.3 45.3 45.3 45.2 45 25.2 2.0 5.0 SE 0.00 30.056
04/10/2006 2:20 a 45.1 45.1 45.1 45.3 45.0 45 25.0 2.0 4.0 SE 0.00 30.057
04/10/2006 2:30 a 44.8 44.8 44.8 45.0 44.7 45 24.8 1.0 4.0 ESE 0.00 30.060
04/10/2006 2:40 a 44.6 44.6 44.6 44.7 44.5 45 24.6 1.0 4.0 ESE 0.00 30.060
04/10/2006 2:50 a 44.4 44.4 44.4 44.5 44.2 45 24.4 1.0 6.0 E 0.00 30.058
04/10/2006 3:00 a 44.1 44.1 44.1 44.2 44.0 46 24.7 1.0 5.0 E 0.00 30.064
04/10/2006 3:10 a 43.7 43.7 43.7 44.0 43.4 46 24.3 0.0 3.0 E 0.00 30.067
04/10/2006 3:20 a 43.4 43.4 43.4 43.5 43.3 45 23.5 1.0 2.0 E 0.00 30.069
04/10/2006 3:30 a 43.0 43.0 43.0 43.4 42.4 49 25.2 0.0 3.0 E 0.00 30.074
04/10/2006 3:40 a 41.8 41.8 41.8 42.4 41.2 53 25.9 0.0 1.0 E 0.00 30.075
04/10/2006 3:50 a 40.8 40.8 40.8 41.2 40.4 57 26.8 0.0 0.0 --- 0.00 30.078
04/10/2006 4:00 a 40.0 40.0 40.0 40.4 39.6 58 26.4 0.0 0.0 --- 0.00 30.076
04/10/2006 4:10 a 39.1 39.1 39.1 39.6 38.6 59 26.0 0.0 1.0 E 0.00 30.082
04/10/2006 4:20 a 38.2 38.2 38.2 38.6 37.7 64 27.1 0.0 1.0 E 0.00 30.084
04/10/2006 4:30 a 37.4 37.4 37.4 37.7 37.2 63 26.0 0.0 0.0 --- 0.00 30.090
04/10/2006 4:40 a 37.0 37.0 37.0 37.2 36.7 63 25.6 0.0 0.0 --- 0.00 30.093
04/10/2006 4:50 a 36.5 36.5 36.5 36.7 36.4 65 25.9 0.0 0.0 --- 0.00 30.096
04/10/2006 5:00 a 36.2 36.2 36.2 36.4 36.1 68 26.7 0.0 0.0 --- 0.00 30.096
04/10/2006 5:10 a 35.9 35.9 35.9 36.1 35.8 66 25.7 0.0 0.0 --- 0.00 30.102
04/10/2006 5:20 a 35.6 35.6 35.6 35.8 35.5 68 26.1 0.0 0.0 --- 0.00 30.102
04/10/2006 5:30 a 35.4 35.4 35.4 35.5 35.2 70 26.6 0.0 0.0 --- 0.00 30.109
04/10/2006 5:40 a 35.0 35.0 35.0 35.3 34.9 70 26.2 0.0 0.0 --- 0.00 30.112
04/10/2006 5:50 a 34.6 34.6 34.6 34.9 34.3 71 26.2 0.0 0.0 --- 0.00 30.115
04/10/2006 6:00 a 34.2 34.2 34.2 34.3 34.1 74 26.8 0.0 0.0 --- 0.00 30.118
04/10/2006 6:10 a 34.1 34.1 34.1 34.2 34.1 72 26.0 0.0 0.0 --- 0.00 30.126
04/10/2006 6:20 a 34.0 34.0 34.0 34.1 33.9 71 25.6 0.0 0.0 --- 0.00 30.129
04/10/2006 6:30 a 33.8 33.8 33.8 33.9 33.7 74 26.4 0.0 0.0 --- 0.00 30.131
04/10/2006 6:40 a 33.8 33.8 33.8 33.8 33.7 74 26.4 0.0 0.0 --- 0.00 30.142
04/10/2006 6:50 a 33.6 33.6 33.6 33.7 33.5 75 26.5 0.0 0.0 --- 0.00 30.146
04/10/2006 7:00 a 33.5 33.5 33.5 33.6 33.5 75 26.4 0.0 0.0 --- 0.00 30.149
04/10/2006 7:10 a 33.7 33.7 33.7 34.0 33.6 75 26.6 0.0 0.0 --- 0.00 30.157
04/10/2006 7:20 a 34.4 34.4 34.4 34.9 34.0 73 26.7 0.0 0.0 --- 0.00 30.158
04/10/2006 7:30 a 35.9 35.9 35.9 36.8 35.0 71 27.4 0.0 1.0 E 0.00 30.158
04/10/2006 7:40 a 37.5 37.5 37.5 38.3 36.8 63 26.1 0.0 0.0 --- 0.00 30.159
04/10/2006 7:50 a 39.5 39.5 39.5 40.8 38.4 55 24.7 0.0 3.0 E 0.00 30.168
04/10/2006 8:00 a 41.7 41.7 41.7 42.4 40.8 52 25.4 0.0 4.0 E 0.00 30.169
04/10/2006 8:10 a 43.1 43.1 43.1 43.6 42.5 50 25.7 0.0 3.0 SSE 0.00 30.171
04/10/2006 8:20 a 44.0 44.0 44.0 44.5 43.6 48 25.6 1.0 4.0 E 0.00 30.176
04/10/2006 8:30 a 44.9 44.9 44.9 45.3 44.5 46 25.4 1.0 6.0 ESE 0.00 30.180
04/10/2006 8:40 a 45.5 45.5 45.5 45.9 45.3 46 25.9 0.0 3.0 S 0.00 30.183
04/10/2006 8:50 a 46.3 46.3 46.3 46.7 45.9 46 26.7 0.0 2.0 S 0.00 30.183
04/10/2006 9:00 a 47.1 47.1 47.1 47.5 46.7 44 26.3 1.0 4.0 E 0.00 30.185
04/10/2006 9:10 a 47.9 47.9 47.9 48.3 47.5 45 27.6 1.0 3.0 E 0.00 30.189
04/10/2006 9:20 a 48.8 48.8 48.8 49.3 48.3 44 27.9 1.0 3.0 E 0.00 30.187
04/10/2006 9:30 a 49.8 49.8 49.8 50.3 49.3 41 27.1 1.0 3.0 WNW 0.00 30.186
04/10/2006 9:40 a 50.5 50.5 50.5 50.8 50.3 41 27.7 1.0 3.0 SSE 0.00 30.191
04/10/2006 9:50 a 51.3 51.3 51.3 52.0 50.8 40 27.8 1.0 3.0 N 0.00 30.190
04/10/2006 10:00 a 52.2 52.2 52.2 52.3 52.0 39 28.0 1.0 3.0 NW 0.00 30.194
04/10/2006 10:10 a 52.4 52.4 52.4 52.7 52.2 37 26.9 1.0 2.0 N 0.00 30.194
04/10/2006 10:20 a 52.8 52.8 52.8 53.0 52.7 37 27.3 1.0 3.0 N 0.00 30.195
04/10/2006 10:30 a 52.6 52.6 52.6 53.0 52.4 39 28.4 2.0 5.0 E 0.00 30.194
04/10/2006 10:40 a 52.7 52.7 52.7 53.2 52.3 37 27.2 1.0 4.0 W 0.00 30.196
04/10/2006 10:50 a 53.2 53.2 53.2 53.3 53.1 40 29.5 0.0 2.0 W 0.00 30.192
04/10/2006 11:00 a 53.4 53.4 53.4 53.6 53.3 36 27.1 1.0 2.0 SSW 0.00 30.194
04/10/2006 11:10 a 54.0 54.0 54.0 54.2 53.7 36 27.7 0.0 3.0 NW 0.00 30.191
04/10/2006 11:20 a 54.5 54.5 54.5 54.8 54.2 35 27.4 0.0 1.0 WNW 0.00 30.189
04/10/2006 11:30 a 54.8 54.8 54.8 54.9 54.6 35 27.7 1.0 3.0 NW 0.00 30.186
04/10/2006 11:40 a 54.5 54.5 54.5 54.6 54.5 37 28.8 0.0 2.0 NW 0.00 30.186
04/10/2006 11:50 a 55.1 55.1 55.1 55.5 54.6 37 29.3 0.0 2.0 NW 0.00 30.181
04/10/2006 12:00 p 55.9 55.9 55.9 56.1 55.5 33 27.2 0.0 2.0 WSW 0.00 30.177
04/10/2006 12:10 p 55.9 55.9 55.9 56.0 55.6 33 27.2 1.0 4.0 E 0.00 30.171
04/10/2006 12:20 p 55.8 55.8 55.8 56.4 55.5 34 27.9 0.0 2.0 E 0.00 30.170
04/10/2006 12:30 p 56.7 56.7 56.7 57.0 56.4 33 27.9 1.0 4.0 E 0.00 30.170
04/10/2006 12:40 p 57.2 57.2 57.2 57.3 56.9 32 27.6 1.0 6.0 E 0.00 30.165
04/10/2006 12:50 p 56.8 56.8 56.8 57.1 56.7 32 27.3 1.0 6.0 E 0.00 30.163
04/10/2006 1:00 p 57.0 57.0 57.0 57.2 56.8 31 26.7 1.0 3.0 E 0.00 30.159
04/10/2006 1:10 p 57.4 57.4 57.4 57.8 57.1 31 27.0 1.0 4.0 NNW 0.00 30.157
04/10/2006 1:20 p 58.4 58.4 58.4 58.8 57.8 31 27.9 2.0 6.0 E 0.00 30.153
04/10/2006 1:30 p 58.6 58.6 58.6 58.8 58.5 29 26.5 2.0 7.0 E 0.00 30.151
04/10/2006 1:40 p 59.0 59.0 59.0 59.3 58.8 30 27.6 0.0 2.0 ESE 0.00 30.145
04/10/2006 1:50 p 59.4 59.4 59.4 59.7 59.1 28 26.3 1.0 5.0 NW 0.00 30.142
04/10/2006 2:00 p 59.2 59.2 59.2 59.4 59.0 32 29.4 1.0 4.0 N 0.00 30.138
04/10/2006 2:10 p 60.0 60.0 60.0 60.5 59.4 29 27.7 1.0 5.0 N 0.00 30.137
04/10/2006 2:20 p 60.3 60.3 60.3 60.4 60.2 29 27.9 1.0 4.0 ENE 0.00 30.135
04/10/2006 2:30 p 60.6 60.6 60.6 60.9 60.4 31 29.8 1.0 6.0 E 0.00 30.133
04/10/2006 2:40 p 61.1 61.1 61.1 61.2 60.9 29 28.6 1.0 5.0 ENE 0.00 30.129
04/10/2006 2:50 p 61.1 61.1 61.1 61.3 60.9 27 26.9 1.0 4.0 NNE 0.00 30.126
04/10/2006 3:00 p 61.1 61.1 61.1 61.3 61.0 28 27.8 1.0 4.0 ESE 0.00 30.122
04/10/2006 3:10 p 61.7 61.7 61.7 61.9 61.3 28 28.3 1.0 5.0 ESE 0.00 30.116
04/10/2006 3:20 p 61.7 61.7 61.7 61.9 61.6 26 26.5 1.0 4.0 ENE 0.00 30.117
04/10/2006 3:30 p 61.5 61.5 61.5 61.6 61.4 27 27.2 1.0 5.0 ESE 0.00 30.113
04/10/2006 3:40 p 61.7 61.7 61.7 61.8 61.5 27 27.4 1.0 4.0 NE 0.00 30.109
04/10/2006 3:50 p 62.2 62.2 62.2 62.3 61.8 26 26.9 0.0 3.0 NNW 0.00 30.106
04/10/2006 4:00 p 62.0 62.0 62.0 62.3 61.9 27 27.7 1.0 5.0 ESE 0.00 30.100
04/10/2006 4:10 p 62.1 62.1 62.1 62.3 62.1 27 27.7 0.0 3.0 ESE 0.00 30.101
04/10/2006 4:20 p 62.4 62.4 62.4 62.5 62.2 25 26.1 0.0 2.0 ESE 0.00 30.098
04/10/2006 4:30 p 62.6 62.6 62.6 62.9 62.5 27 28.2 1.0 4.0 ENE 0.00 30.098
04/10/2006 4:40 p 62.8 62.8 62.8 63.0 62.7 27 28.3 0.0 2.0 ENE 0.00 30.096
04/10/2006 4:50 p 62.5 62.5 62.5 62.7 62.3 26 27.2 1.0 3.0 ENE 0.00 30.099
04/10/2006 5:00 p 62.2 62.2 62.2 62.3 62.1 27 27.8 1.0 3.0 E 0.00 30.099
04/10/2006 5:10 p 62.0 62.0 62.0 62.1 61.9 27 27.7 0.0 2.0 WNW 0.00 30.097
04/10/2006 5:20 p 61.8 61.8 61.8 61.9 61.7 26 26.6 1.0 4.0 WNW 0.00 30.097
04/10/2006 5:30 p 61.6 61.6 61.6 61.7 61.5 27 27.3 0.0 4.0 E 0.00 30.097
04/10/2006 5:40 p 61.4 61.4 61.4 61.6 61.3 27 27.1 0.0 3.0 E 0.00 30.096
04/10/2006 5:50 p 61.2 61.2 61.2 61.3 61.2 28 27.9 1.0 5.0 NW 0.00 30.096
04/10/2006 6:00 p 61.0 61.0 61.0 61.2 60.9 27 26.8 0.0 3.0 N 0.00 30.096
04/10/2006 6:10 p 60.8 60.8 60.8 60.9 60.7 27 26.6 0.0 2.0 N 0.00 30.100
04/10/2006 6:20 p 60.6 60.6 60.6 60.7 60.4 27 26.5 0.0 2.0 N 0.00 30.098
04/10/2006 6:30 p 60.3 60.3 60.3 60.4 60.1 29 27.9 0.0 1.0 N 0.00 30.100
04/10/2006 6:40 p 59.9 59.9 59.9 60.1 59.8 27 25.9 0.0 3.0 NNW 0.00 30.102
04/10/2006 6:50 p 59.6 59.6 59.6 59.8 59.4 28 26.5 0.0 1.0 ENE 0.00 30.102
04/10/2006 7:00 p 59.2 59.2 59.2 59.5 59.0 31 28.6 0.0 0.0 --- 0.00 30.102
04/10/2006 7:10 p 58.5 58.5 58.5 59.0 57.9 35 31.0 1.0 5.0 NNE 0.00 30.106
04/10/2006 7:20 p 57.2 57.2 57.2 57.9 56.5 39 32.5 1.0 5.0 WNW 0.00 30.105
04/10/2006 7:30 p 55.7 55.7 55.7 56.4 55.2 40 31.8 1.0 5.0 NW 0.00 30.107
04/10/2006 7:40 p 54.7 54.7 54.7 55.2 54.3 43 32.7 1.0 3.0 NW 0.00 30.112
04/10/2006 7:50 p 53.9 53.9 53.9 54.3 53.5 43 31.9 1.0 3.0 NNW 0.00 30.116
04/10/2006 8:00 p 53.4 53.4 53.4 53.5 53.2 44 32.1 0.0 4.0 NNW 0.00 30.120
04/10/2006 8:10 p 52.9 52.9 52.9 53.2 52.7 45 32.2 0.0 3.0 NNW 0.00 30.126
04/10/2006 8:20 p 52.5 52.5 52.5 52.7 52.2 45 31.8 0.0 3.0 NW 0.00 30.131
04/10/2006 8:30 p 52.1 52.1 52.1 52.2 51.9 47 32.5 0.0 3.0 NNW 0.00 30.139
04/10/2006 8:40 p 51.7 51.7 51.7 51.9 51.5 47 32.1 0.0 2.0 NW 0.00 30.142
04/10/2006 8:50 p 51.3 51.3 51.3 51.5 51.0 50 33.3 0.0 0.0 --- 0.00 30.145
04/10/2006 9:00 p 50.8 50.8 50.8 51.1 50.6 51 33.3 0.0 3.0 NNW 0.00 30.150
04/10/2006 9:10 p 50.4 50.4 50.4 50.6 50.3 51 33.0 0.0 0.0 --- 0.00 30.156
04/10/2006 9:20 p 50.2 50.2 50.2 50.3 50.1 51 32.8 0.0 1.0 E 0.00 30.154
04/10/2006 9:30 p 49.9 49.9 49.9 50.1 49.6 53 33.5 0.0 0.0 --- 0.00 30.160
04/10/2006 9:40 p 49.2 49.2 49.2 49.6 48.9 54 33.3 0.0 0.0 --- 0.00 30.161
04/10/2006 9:50 p 48.6 48.6 48.6 48.9 48.4 55 33.2 0.0 1.0 E 0.00 30.168
04/10/2006 10:00 p 48.4 48.4 48.4 48.4 48.2 56 33.4 0.0 0.0 --- 0.00 30.167
04/10/2006 10:10 p 48.0 48.0 48.0 48.2 47.7 56 33.1 0.0 0.0 --- 0.00 30.170
04/10/2006 10:20 p 47.5 47.5 47.5 47.7 47.3 58 33.5 0.0 0.0 --- 0.00 30.173
04/10/2006 10:30 p 47.1 47.1 47.1 47.4 46.8 59 33.5 0.0 0.0 --- 0.00 30.172
04/10/2006 10:40 p 46.6 46.6 46.6 46.9 46.3 61 33.9 0.0 0.0 --- 0.00 30.176
04/10/2006 10:50 p 46.0 46.0 46.0 46.3 45.6 62 33.7 0.0 0.0 --- 0.00 30.182
04/10/2006 11:00 p 45.3 45.3 45.3 45.6 45.1 63 33.5 0.0 0.0 --- 0.00 30.179
04/10/2006 11:10 p 44.7 44.7 44.7 45.1 44.5 64 33.3 0.0 0.0 --- 0.00 30.184
04/10/2006 11:20 p 44.5 44.5 44.5 44.5 44.4 66 33.9 0.0 0.0 --- 0.00 30.186
04/10/2006 11:30 p 44.2 44.2 44.2 44.4 43.9 66 33.6 0.0 0.0 --- 0.00 30.192
04/10/2006 11:40 p 43.7 43.7 43.7 44.0 43.5 68 33.8 0.0 0.0 --- 0.00 30.185
04/10/2006 11:50 p 43.3 43.3 43.3 43.5 43.2 69 33.8 0.0 0.0 --- 0.00 30.188
04/11/2006 12:00 a 43.0 43.0 43.0 43.2 42.9 70 33.9 0.0 0.0 --- 0.00 30.192
04/11/2006 12:10 a 42.6 42.6 42.6 42.9 42.4 73 34.6 0.0 0.0 --- 0.00 30.194
04/11/2006 12:20 a 42.3 42.3 42.3 42.4 42.2 73 34.3 0.0 0.0 --- 0.00 30.197
04/11/2006 12:30 a 42.2 42.2 42.2 42.2 42.1 73 34.2 0.0 0.0 --- 0.00 30.192
04/11/2006 12:40 a 42.0 42.0 42.0 42.1 41.9 72 33.6 0.0 0.0 ---